<?xml version="1.0" encoding="UTF-8" standalone="no" ?>
<gpx xmlns="http://www.topografix.com/GPX/1/1" xmlns:xsi="http://www.w3.org/2001/XMLSchema-instance" xsi:schemaLocation="http://www.topografix.com/GPX/1/1 http://www.topografix.com/GPX/1/1/gpx.xsd" version="1.1" creator="VisuGPX - https://www.visugpx.com">
  <metadata>
    <name>2019-11-24-46-luzech</name>
    <desc><![CDATA[Belle randonnée de 8km sur les hauteurs de Luzech environ 260m de dénivelé positif. Un départ dans le ruelles du village avant d'attaquer une belle montée par un sentier étroit, celui ci nous amène au point de vue de l'impernal en passant par les restes du donjon du chateau aujourd'hui disparu]]></desc>
  </metadata>
  <trk>
    <name><![CDATA[Luzech Randonnée 21 nov. 2019 à 2:05 PM]]></name>
    <trkseg>
      <trkpt lat="44.47565" lon="1.28567">
        <ele>37.757326666667</ele>
        <time>2019-11-21T13:05:07Z</time>
      </trkpt>
      <trkpt lat="44.47564" lon="1.28568">
        <ele>36.0573</ele>
        <time>2019-11-21T13:05:34Z</time>
      </trkpt>
      <trkpt lat="44.4755" lon="1.28607">
        <ele>76.25572</ele>
        <time>2019-11-21T13:05:38Z</time>
      </trkpt>
      <trkpt lat="44.47548" lon="1.28616">
        <ele>67.455373333333</ele>
        <time>2019-11-21T13:05:43Z</time>
      </trkpt>
      <trkpt lat="44.47564" lon="1.28588">
        <ele>64.156493333333</ele>
        <time>2019-11-21T13:05:47Z</time>
      </trkpt>
      <trkpt lat="44.47562" lon="1.28599">
        <ele>61.956026666667</ele>
        <time>2019-11-21T13:05:53Z</time>
      </trkpt>
      <trkpt lat="44.47564" lon="1.28612">
        <ele>58.75554</ele>
        <time>2019-11-21T13:06:01Z</time>
      </trkpt>
      <trkpt lat="44.4757" lon="1.28619">
        <ele>58.95526</ele>
        <time>2019-11-21T13:06:08Z</time>
      </trkpt>
      <trkpt lat="44.47578" lon="1.28622">
        <ele>61.155106666667</ele>
        <time>2019-11-21T13:06:14Z</time>
      </trkpt>
      <trkpt lat="44.47586" lon="1.28624">
        <ele>60.45506</ele>
        <time>2019-11-21T13:06:21Z</time>
      </trkpt>
      <trkpt lat="44.47594" lon="1.28626">
        <ele>57.95496</ele>
        <time>2019-11-21T13:06:29Z</time>
      </trkpt>
      <trkpt lat="44.47601" lon="1.2863">
        <ele>55.954806666667</ele>
        <time>2019-11-21T13:06:34Z</time>
      </trkpt>
      <trkpt lat="44.47609" lon="1.28632">
        <ele>54.954713333333</ele>
        <time>2019-11-21T13:06:42Z</time>
      </trkpt>
      <trkpt lat="44.47618" lon="1.28633">
        <ele>55.754666666667</ele>
        <time>2019-11-21T13:06:56Z</time>
      </trkpt>
      <trkpt lat="44.47626" lon="1.28635">
        <ele>55.754593333333</ele>
        <time>2019-11-21T13:07:05Z</time>
      </trkpt>
      <trkpt lat="44.47634" lon="1.28638">
        <ele>55.05448</ele>
        <time>2019-11-21T13:07:12Z</time>
      </trkpt>
      <trkpt lat="44.47642" lon="1.28642">
        <ele>54.75432</ele>
        <time>2019-11-21T13:07:21Z</time>
      </trkpt>
      <trkpt lat="44.4765" lon="1.28644">
        <ele>55.45424</ele>
        <time>2019-11-21T13:07:34Z</time>
      </trkpt>
      <trkpt lat="44.47659" lon="1.28647">
        <ele>55.554126666667</ele>
        <time>2019-11-21T13:07:44Z</time>
      </trkpt>
      <trkpt lat="44.47667" lon="1.28648">
        <ele>56.2541</ele>
        <time>2019-11-21T13:07:52Z</time>
      </trkpt>
      <trkpt lat="44.47676" lon="1.2865">
        <ele>56.554006666667</ele>
        <time>2019-11-21T13:08:03Z</time>
      </trkpt>
      <trkpt lat="44.47684" lon="1.28655">
        <ele>57.5538</ele>
        <time>2019-11-21T13:08:20Z</time>
      </trkpt>
      <trkpt lat="44.47692" lon="1.28656">
        <ele>57.853746666667</ele>
        <time>2019-11-21T13:08:29Z</time>
      </trkpt>
      <trkpt lat="44.477" lon="1.28662">
        <ele>58.053526666667</ele>
        <time>2019-11-21T13:08:38Z</time>
      </trkpt>
      <trkpt lat="44.47708" lon="1.28666">
        <ele>58.353353333333</ele>
        <time>2019-11-21T13:08:45Z</time>
      </trkpt>
      <trkpt lat="44.47715" lon="1.28674">
        <ele>57.45306</ele>
        <time>2019-11-21T13:08:56Z</time>
      </trkpt>
      <trkpt lat="44.47722" lon="1.28679">
        <ele>56.652853333333</ele>
        <time>2019-11-21T13:09:04Z</time>
      </trkpt>
      <trkpt lat="44.47729" lon="1.2868">
        <ele>56.552786666667</ele>
        <time>2019-11-21T13:09:10Z</time>
      </trkpt>
      <trkpt lat="44.47737" lon="1.28682">
        <ele>56.652733333333</ele>
        <time>2019-11-21T13:09:15Z</time>
      </trkpt>
      <trkpt lat="44.47745" lon="1.28686">
        <ele>56.752546666667</ele>
        <time>2019-11-21T13:09:25Z</time>
      </trkpt>
      <trkpt lat="44.47754" lon="1.28686">
        <ele>56.852573333333</ele>
        <time>2019-11-21T13:09:33Z</time>
      </trkpt>
      <trkpt lat="44.47764" lon="1.2869">
        <ele>55.952413333333</ele>
        <time>2019-11-21T13:09:37Z</time>
      </trkpt>
      <trkpt lat="44.47772" lon="1.28689">
        <ele>55.752446666667</ele>
        <time>2019-11-21T13:09:43Z</time>
      </trkpt>
      <trkpt lat="44.4778" lon="1.28684">
        <ele>54.552646666667</ele>
        <time>2019-11-21T13:09:50Z</time>
      </trkpt>
      <trkpt lat="44.47789" lon="1.28683">
        <ele>54.252693333333</ele>
        <time>2019-11-21T13:09:55Z</time>
      </trkpt>
      <trkpt lat="44.47797" lon="1.28682">
        <ele>53.952713333333</ele>
        <time>2019-11-21T13:09:59Z</time>
      </trkpt>
      <trkpt lat="44.47805" lon="1.28681">
        <ele>55.45276</ele>
        <time>2019-11-21T13:10:08Z</time>
      </trkpt>
      <trkpt lat="44.47813" lon="1.28676">
        <ele>58.552953333333</ele>
        <time>2019-11-21T13:10:15Z</time>
      </trkpt>
      <trkpt lat="44.47822" lon="1.28674">
        <ele>58.653026666667</ele>
        <time>2019-11-21T13:10:27Z</time>
      </trkpt>
      <trkpt lat="44.4783" lon="1.28671">
        <ele>57.15318</ele>
        <time>2019-11-21T13:10:39Z</time>
      </trkpt>
      <trkpt lat="44.47839" lon="1.28672">
        <ele>55.053126666667</ele>
        <time>2019-11-21T13:10:46Z</time>
      </trkpt>
      <trkpt lat="44.47846" lon="1.28673">
        <ele>53.153073333333</ele>
        <time>2019-11-21T13:10:53Z</time>
      </trkpt>
      <trkpt lat="44.47853" lon="1.28669">
        <ele>50.65324</ele>
        <time>2019-11-21T13:10:59Z</time>
      </trkpt>
      <trkpt lat="44.4786" lon="1.28662">
        <ele>49.65354</ele>
        <time>2019-11-21T13:11:06Z</time>
      </trkpt>
      <trkpt lat="44.47867" lon="1.28657">
        <ele>49.353726666667</ele>
        <time>2019-11-21T13:11:12Z</time>
      </trkpt>
      <trkpt lat="44.47873" lon="1.28648">
        <ele>48.7541</ele>
        <time>2019-11-21T13:11:19Z</time>
      </trkpt>
      <trkpt lat="44.47878" lon="1.28637">
        <ele>46.754506666667</ele>
        <time>2019-11-21T13:11:25Z</time>
      </trkpt>
      <trkpt lat="44.47886" lon="1.28633">
        <ele>46.454693333333</ele>
        <time>2019-11-21T13:11:31Z</time>
      </trkpt>
      <trkpt lat="44.47894" lon="1.28629">
        <ele>46.454846666667</ele>
        <time>2019-11-21T13:11:38Z</time>
      </trkpt>
      <trkpt lat="44.47902" lon="1.28627">
        <ele>46.254913333333</ele>
        <time>2019-11-21T13:11:44Z</time>
      </trkpt>
      <trkpt lat="44.4791" lon="1.28623">
        <ele>48.6551</ele>
        <time>2019-11-21T13:11:49Z</time>
      </trkpt>
      <trkpt lat="44.47918" lon="1.2862">
        <ele>49.255186666667</ele>
        <time>2019-11-21T13:11:56Z</time>
      </trkpt>
      <trkpt lat="44.47927" lon="1.28621">
        <ele>49.25516</ele>
        <time>2019-11-21T13:12:05Z</time>
      </trkpt>
      <trkpt lat="44.47935" lon="1.28623">
        <ele>48.55508</ele>
        <time>2019-11-21T13:12:12Z</time>
      </trkpt>
      <trkpt lat="44.47943" lon="1.28621">
        <ele>53.355153333333</ele>
        <time>2019-11-21T13:12:31Z</time>
      </trkpt>
      <trkpt lat="44.47951" lon="1.28616">
        <ele>56.255353333333</ele>
        <time>2019-11-21T13:12:38Z</time>
      </trkpt>
      <trkpt lat="44.47957" lon="1.28609">
        <ele>60.45566</ele>
        <time>2019-11-21T13:12:45Z</time>
      </trkpt>
      <trkpt lat="44.47965" lon="1.28603">
        <ele>65.855886666667</ele>
        <time>2019-11-21T13:12:53Z</time>
      </trkpt>
      <trkpt lat="44.47971" lon="1.28595">
        <ele>69.656186666667</ele>
        <time>2019-11-21T13:13:01Z</time>
      </trkpt>
      <trkpt lat="44.47979" lon="1.28589">
        <ele>71.156446666667</ele>
        <time>2019-11-21T13:13:10Z</time>
      </trkpt>
      <trkpt lat="44.47987" lon="1.28587">
        <ele>73.25652</ele>
        <time>2019-11-21T13:13:18Z</time>
      </trkpt>
      <trkpt lat="44.47995" lon="1.28589">
        <ele>69.056453333333</ele>
        <time>2019-11-21T13:13:25Z</time>
      </trkpt>
      <trkpt lat="44.48003" lon="1.28591">
        <ele>65.456373333333</ele>
        <time>2019-11-21T13:13:31Z</time>
      </trkpt>
      <trkpt lat="44.48007" lon="1.28581">
        <ele>62.05676</ele>
        <time>2019-11-21T13:14:23Z</time>
      </trkpt>
      <trkpt lat="44.48016" lon="1.28579">
        <ele>59.15686</ele>
        <time>2019-11-21T13:15:09Z</time>
      </trkpt>
      <trkpt lat="44.48019" lon="1.28579">
        <ele>59.35686</ele>
        <time>2019-11-21T13:15:47Z</time>
      </trkpt>
      <trkpt lat="44.48028" lon="1.28581">
        <ele>69.056753333333</ele>
        <time>2019-11-21T13:16:20Z</time>
      </trkpt>
      <trkpt lat="44.48028" lon="1.28587">
        <ele>66.056506666667</ele>
        <time>2019-11-21T13:16:42Z</time>
      </trkpt>
      <trkpt lat="44.48028" lon="1.286">
        <ele>54.25602</ele>
        <time>2019-11-21T13:16:52Z</time>
      </trkpt>
      <trkpt lat="44.48034" lon="1.28606">
        <ele>62.755773333333</ele>
        <time>2019-11-21T13:17:49Z</time>
      </trkpt>
      <trkpt lat="44.48043" lon="1.28607">
        <ele>55.35572</ele>
        <time>2019-11-21T13:18:00Z</time>
      </trkpt>
      <trkpt lat="44.48047" lon="1.28596">
        <ele>67.356146666667</ele>
        <time>2019-11-21T13:19:04Z</time>
      </trkpt>
      <trkpt lat="44.48054" lon="1.28589">
        <ele>70.056433333333</ele>
        <time>2019-11-21T13:19:20Z</time>
      </trkpt>
      <trkpt lat="44.48059" lon="1.28579">
        <ele>68.956833333333</ele>
        <time>2019-11-21T13:19:39Z</time>
      </trkpt>
      <trkpt lat="44.48066" lon="1.28573">
        <ele>63.657086666667</ele>
        <time>2019-11-21T13:19:53Z</time>
      </trkpt>
      <trkpt lat="44.48075" lon="1.28573">
        <ele>64.15708</ele>
        <time>2019-11-21T13:20:05Z</time>
      </trkpt>
      <trkpt lat="44.4808" lon="1.28563">
        <ele>68.457473333333</ele>
        <time>2019-11-21T13:20:19Z</time>
      </trkpt>
      <trkpt lat="44.48085" lon="1.28553">
        <ele>76.257866666667</ele>
        <time>2019-11-21T13:20:31Z</time>
      </trkpt>
      <trkpt lat="44.48087" lon="1.28565">
        <ele>78.2574</ele>
        <time>2019-11-21T13:21:10Z</time>
      </trkpt>
      <trkpt lat="44.48096" lon="1.28567">
        <ele>85.457306666667</ele>
        <time>2019-11-21T13:21:53Z</time>
      </trkpt>
      <trkpt lat="44.48102" lon="1.28558">
        <ele>91.357686666667</ele>
        <time>2019-11-21T13:22:22Z</time>
      </trkpt>
      <trkpt lat="44.48108" lon="1.28549">
        <ele>89.45804</ele>
        <time>2019-11-21T13:22:56Z</time>
      </trkpt>
      <trkpt lat="44.48115" lon="1.28542">
        <ele>90.55834</ele>
        <time>2019-11-21T13:23:23Z</time>
      </trkpt>
      <trkpt lat="44.48123" lon="1.28541">
        <ele>96.95838</ele>
        <time>2019-11-21T13:23:41Z</time>
      </trkpt>
      <trkpt lat="44.48132" lon="1.28539">
        <ele>96.658453333333</ele>
        <time>2019-11-21T13:23:53Z</time>
      </trkpt>
      <trkpt lat="44.48137" lon="1.28529">
        <ele>101.25884</ele>
        <time>2019-11-21T13:24:02Z</time>
      </trkpt>
      <trkpt lat="44.48143" lon="1.28521">
        <ele>105.45918</ele>
        <time>2019-11-21T13:24:45Z</time>
      </trkpt>
      <trkpt lat="44.48149" lon="1.28528">
        <ele>95.0589</ele>
        <time>2019-11-21T13:25:18Z</time>
      </trkpt>
      <trkpt lat="44.48154" lon="1.28518">
        <ele>103.05928</ele>
        <time>2019-11-21T13:25:30Z</time>
      </trkpt>
      <trkpt lat="44.48161" lon="1.28512">
        <ele>108.85954</ele>
        <time>2019-11-21T13:25:42Z</time>
      </trkpt>
      <trkpt lat="44.4817" lon="1.28514">
        <ele>115.75945333333</ele>
        <time>2019-11-21T13:26:11Z</time>
      </trkpt>
      <trkpt lat="44.48178" lon="1.28514">
        <ele>113.45942666667</ele>
        <time>2019-11-21T13:26:26Z</time>
      </trkpt>
      <trkpt lat="44.48187" lon="1.28514">
        <ele>111.45944</ele>
        <time>2019-11-21T13:26:41Z</time>
      </trkpt>
      <trkpt lat="44.48195" lon="1.2851">
        <ele>119.25961333333</ele>
        <time>2019-11-21T13:27:06Z</time>
      </trkpt>
      <trkpt lat="44.48204" lon="1.28508">
        <ele>117.35967333333</ele>
        <time>2019-11-21T13:27:48Z</time>
      </trkpt>
      <trkpt lat="44.48206" lon="1.28497">
        <ele>119.46013333333</ele>
        <time>2019-11-21T13:28:46Z</time>
      </trkpt>
      <trkpt lat="44.48214" lon="1.2849">
        <ele>121.96038666667</ele>
        <time>2019-11-21T13:29:05Z</time>
      </trkpt>
      <trkpt lat="44.48219" lon="1.28493">
        <ele>125.26027333333</ele>
        <time>2019-11-21T13:29:52Z</time>
      </trkpt>
      <trkpt lat="44.48227" lon="1.28502">
        <ele>121.15992666667</ele>
        <time>2019-11-21T13:29:57Z</time>
      </trkpt>
      <trkpt lat="44.48235" lon="1.28497">
        <ele>113.06012666667</ele>
        <time>2019-11-21T13:30:23Z</time>
      </trkpt>
      <trkpt lat="44.48244" lon="1.28496">
        <ele>112.96014666667</ele>
        <time>2019-11-21T13:30:33Z</time>
      </trkpt>
      <trkpt lat="44.48253" lon="1.28495">
        <ele>111.0602</ele>
        <time>2019-11-21T13:30:50Z</time>
      </trkpt>
      <trkpt lat="44.48261" lon="1.28496">
        <ele>109.86014666667</ele>
        <time>2019-11-21T13:31:03Z</time>
      </trkpt>
      <trkpt lat="44.4827" lon="1.28495">
        <ele>107.26019333333</ele>
        <time>2019-11-21T13:31:15Z</time>
      </trkpt>
      <trkpt lat="44.48278" lon="1.28495">
        <ele>107.8602</ele>
        <time>2019-11-21T13:31:24Z</time>
      </trkpt>
      <trkpt lat="44.48286" lon="1.28496">
        <ele>111.96016666667</ele>
        <time>2019-11-21T13:31:34Z</time>
      </trkpt>
      <trkpt lat="44.48295" lon="1.28499">
        <ele>110.86005333333</ele>
        <time>2019-11-21T13:31:42Z</time>
      </trkpt>
      <trkpt lat="44.48303" lon="1.28503">
        <ele>109.05989333333</ele>
        <time>2019-11-21T13:31:48Z</time>
      </trkpt>
      <trkpt lat="44.48311" lon="1.285">
        <ele>110.56002</ele>
        <time>2019-11-21T13:31:55Z</time>
      </trkpt>
      <trkpt lat="44.48319" lon="1.28498">
        <ele>112.36008666667</ele>
        <time>2019-11-21T13:32:03Z</time>
      </trkpt>
      <trkpt lat="44.48328" lon="1.28495">
        <ele>111.96020666667</ele>
        <time>2019-11-21T13:32:26Z</time>
      </trkpt>
      <trkpt lat="44.48335" lon="1.28487">
        <ele>116.76050666667</ele>
        <time>2019-11-21T13:32:42Z</time>
      </trkpt>
      <trkpt lat="44.48343" lon="1.28486">
        <ele>118.06056</ele>
        <time>2019-11-21T13:33:05Z</time>
      </trkpt>
      <trkpt lat="44.48346" lon="1.28486">
        <ele>120.66056</ele>
        <time>2019-11-21T13:33:29Z</time>
      </trkpt>
      <trkpt lat="44.48354" lon="1.28486">
        <ele>120.66054666667</ele>
        <time>2019-11-21T13:33:35Z</time>
      </trkpt>
      <trkpt lat="44.48362" lon="1.28485">
        <ele>120.56060666667</ele>
        <time>2019-11-21T13:34:31Z</time>
      </trkpt>
      <trkpt lat="44.48367" lon="1.28475">
        <ele>122.56098666667</ele>
        <time>2019-11-21T13:34:40Z</time>
      </trkpt>
      <trkpt lat="44.48372" lon="1.28466">
        <ele>125.16136</ele>
        <time>2019-11-21T13:34:56Z</time>
      </trkpt>
      <trkpt lat="44.48379" lon="1.28459">
        <ele>130.56164</ele>
        <time>2019-11-21T13:35:10Z</time>
      </trkpt>
      <trkpt lat="44.48385" lon="1.2845">
        <ele>133.26199333333</ele>
        <time>2019-11-21T13:35:25Z</time>
      </trkpt>
      <trkpt lat="44.48391" lon="1.28442">
        <ele>139.06230666667</ele>
        <time>2019-11-21T13:35:48Z</time>
      </trkpt>
      <trkpt lat="44.48398" lon="1.28435">
        <ele>139.66258666667</ele>
        <time>2019-11-21T13:36:10Z</time>
      </trkpt>
      <trkpt lat="44.48405" lon="1.2843">
        <ele>136.66282</ele>
        <time>2019-11-21T13:36:47Z</time>
      </trkpt>
      <trkpt lat="44.48411" lon="1.28438">
        <ele>139.56246666667</ele>
        <time>2019-11-21T13:37:12Z</time>
      </trkpt>
      <trkpt lat="44.4842" lon="1.28435">
        <ele>139.76259333333</ele>
        <time>2019-11-21T13:37:32Z</time>
      </trkpt>
      <trkpt lat="44.48427" lon="1.2843">
        <ele>144.56278666667</ele>
        <time>2019-11-21T13:37:45Z</time>
      </trkpt>
      <trkpt lat="44.48433" lon="1.28422">
        <ele>149.76312</ele>
        <time>2019-11-21T13:38:00Z</time>
      </trkpt>
      <trkpt lat="44.48441" lon="1.28416">
        <ele>155.26334666667</ele>
        <time>2019-11-21T13:38:13Z</time>
      </trkpt>
      <trkpt lat="44.48445" lon="1.28405">
        <ele>158.06379333333</ele>
        <time>2019-11-21T13:38:30Z</time>
      </trkpt>
      <trkpt lat="44.48444" lon="1.28393">
        <ele>162.46428</ele>
        <time>2019-11-21T13:39:04Z</time>
      </trkpt>
      <trkpt lat="44.48446" lon="1.28381">
        <ele>165.96476666667</ele>
        <time>2019-11-21T13:39:18Z</time>
      </trkpt>
      <trkpt lat="44.48452" lon="1.28373">
        <ele>169.06508</ele>
        <time>2019-11-21T13:39:36Z</time>
      </trkpt>
      <trkpt lat="44.48461" lon="1.28371">
        <ele>175.16516</ele>
        <time>2019-11-21T13:39:57Z</time>
      </trkpt>
      <trkpt lat="44.48469" lon="1.28367">
        <ele>178.36532</ele>
        <time>2019-11-21T13:40:13Z</time>
      </trkpt>
      <trkpt lat="44.48477" lon="1.28362">
        <ele>178.06553333333</ele>
        <time>2019-11-21T13:40:31Z</time>
      </trkpt>
      <trkpt lat="44.48484" lon="1.28357">
        <ele>179.16572666667</ele>
        <time>2019-11-21T13:40:47Z</time>
      </trkpt>
      <trkpt lat="44.48493" lon="1.28356">
        <ele>181.76577333333</ele>
        <time>2019-11-21T13:41:02Z</time>
      </trkpt>
      <trkpt lat="44.48502" lon="1.28356">
        <ele>180.86576666667</ele>
        <time>2019-11-21T13:41:18Z</time>
      </trkpt>
      <trkpt lat="44.48511" lon="1.28357">
        <ele>183.46572666667</ele>
        <time>2019-11-21T13:41:32Z</time>
      </trkpt>
      <trkpt lat="44.48519" lon="1.28359">
        <ele>190.66565333333</ele>
        <time>2019-11-21T13:41:50Z</time>
      </trkpt>
      <trkpt lat="44.48528" lon="1.28359">
        <ele>195.46564</ele>
        <time>2019-11-21T13:42:05Z</time>
      </trkpt>
      <trkpt lat="44.48536" lon="1.28357">
        <ele>187.36570666667</ele>
        <time>2019-11-21T13:47:15Z</time>
      </trkpt>
      <trkpt lat="44.48545" lon="1.28355">
        <ele>183.5658</ele>
        <time>2019-11-21T13:47:20Z</time>
      </trkpt>
      <trkpt lat="44.48553" lon="1.28353">
        <ele>185.06588666667</ele>
        <time>2019-11-21T13:47:30Z</time>
      </trkpt>
      <trkpt lat="44.48561" lon="1.2835">
        <ele>188.06602</ele>
        <time>2019-11-21T13:47:40Z</time>
      </trkpt>
      <trkpt lat="44.48569" lon="1.28348">
        <ele>190.66607333333</ele>
        <time>2019-11-21T13:47:52Z</time>
      </trkpt>
      <trkpt lat="44.48578" lon="1.28348">
        <ele>191.66607333333</ele>
        <time>2019-11-21T13:48:04Z</time>
      </trkpt>
      <trkpt lat="44.48586" lon="1.28354">
        <ele>195.66585333333</ele>
        <time>2019-11-21T13:48:13Z</time>
      </trkpt>
      <trkpt lat="44.48594" lon="1.28358">
        <ele>191.2657</ele>
        <time>2019-11-21T13:48:21Z</time>
      </trkpt>
      <trkpt lat="44.48602" lon="1.28363">
        <ele>188.9655</ele>
        <time>2019-11-21T13:48:29Z</time>
      </trkpt>
      <trkpt lat="44.4861" lon="1.28368">
        <ele>188.26528666667</ele>
        <time>2019-11-21T13:48:36Z</time>
      </trkpt>
      <trkpt lat="44.48618" lon="1.2837">
        <ele>188.46520666667</ele>
        <time>2019-11-21T13:48:42Z</time>
      </trkpt>
      <trkpt lat="44.48624" lon="1.28376">
        <ele>184.96496</ele>
        <time>2019-11-21T13:48:49Z</time>
      </trkpt>
      <trkpt lat="44.48631" lon="1.28381">
        <ele>185.76477333333</ele>
        <time>2019-11-21T13:48:55Z</time>
      </trkpt>
      <trkpt lat="44.48639" lon="1.28386">
        <ele>184.46456</ele>
        <time>2019-11-21T13:49:02Z</time>
      </trkpt>
      <trkpt lat="44.48647" lon="1.2839">
        <ele>182.66442</ele>
        <time>2019-11-21T13:49:15Z</time>
      </trkpt>
      <trkpt lat="44.48656" lon="1.2839">
        <ele>177.86442</ele>
        <time>2019-11-21T13:49:25Z</time>
      </trkpt>
      <trkpt lat="44.48665" lon="1.28389">
        <ele>178.76445333333</ele>
        <time>2019-11-21T13:49:33Z</time>
      </trkpt>
      <trkpt lat="44.48673" lon="1.28388">
        <ele>180.8645</ele>
        <time>2019-11-21T13:49:42Z</time>
      </trkpt>
      <trkpt lat="44.48682" lon="1.28387">
        <ele>181.96453333333</ele>
        <time>2019-11-21T13:49:54Z</time>
      </trkpt>
      <trkpt lat="44.4869" lon="1.28388">
        <ele>183.26448666667</ele>
        <time>2019-11-21T13:50:06Z</time>
      </trkpt>
      <trkpt lat="44.48697" lon="1.28388">
        <ele>184.66449333333</ele>
        <time>2019-11-21T13:50:15Z</time>
      </trkpt>
      <trkpt lat="44.48706" lon="1.28389">
        <ele>179.66444666667</ele>
        <time>2019-11-21T13:50:20Z</time>
      </trkpt>
      <trkpt lat="44.48714" lon="1.28385">
        <ele>183.06458666667</ele>
        <time>2019-11-21T13:50:32Z</time>
      </trkpt>
      <trkpt lat="44.48719" lon="1.28375">
        <ele>184.26501333333</ele>
        <time>2019-11-21T13:50:44Z</time>
      </trkpt>
      <trkpt lat="44.48726" lon="1.28368">
        <ele>183.9653</ele>
        <time>2019-11-21T13:50:55Z</time>
      </trkpt>
      <trkpt lat="44.48734" lon="1.28374">
        <ele>180.76504</ele>
        <time>2019-11-21T13:51:45Z</time>
      </trkpt>
      <trkpt lat="44.48742" lon="1.2837">
        <ele>194.66518666667</ele>
        <time>2019-11-21T13:52:02Z</time>
      </trkpt>
      <trkpt lat="44.4875" lon="1.28373">
        <ele>191.16508666667</ele>
        <time>2019-11-21T13:52:09Z</time>
      </trkpt>
      <trkpt lat="44.48757" lon="1.28379">
        <ele>190.66483333333</ele>
        <time>2019-11-21T13:52:25Z</time>
      </trkpt>
      <trkpt lat="44.48764" lon="1.28387">
        <ele>184.76450666667</ele>
        <time>2019-11-21T13:52:41Z</time>
      </trkpt>
      <trkpt lat="44.48766" lon="1.28399">
        <ele>184.46403333333</ele>
        <time>2019-11-21T13:52:54Z</time>
      </trkpt>
      <trkpt lat="44.48773" lon="1.28406">
        <ele>184.16378</ele>
        <time>2019-11-21T13:53:06Z</time>
      </trkpt>
      <trkpt lat="44.48781" lon="1.28405">
        <ele>187.96380666667</ele>
        <time>2019-11-21T13:53:14Z</time>
      </trkpt>
      <trkpt lat="44.48789" lon="1.28406">
        <ele>192.66376666667</ele>
        <time>2019-11-21T13:53:22Z</time>
      </trkpt>
      <trkpt lat="44.48796" lon="1.28409">
        <ele>192.16362666667</ele>
        <time>2019-11-21T13:53:32Z</time>
      </trkpt>
      <trkpt lat="44.48805" lon="1.2841">
        <ele>192.56359333333</ele>
        <time>2019-11-21T13:53:40Z</time>
      </trkpt>
      <trkpt lat="44.48814" lon="1.2841">
        <ele>193.66359333333</ele>
        <time>2019-11-21T13:53:48Z</time>
      </trkpt>
      <trkpt lat="44.48813" lon="1.28412">
        <ele>191.86350666667</ele>
        <time>2019-11-21T13:54:26Z</time>
      </trkpt>
      <trkpt lat="44.48823" lon="1.28416">
        <ele>183.36335333333</ele>
        <time>2019-11-21T13:54:30Z</time>
      </trkpt>
      <trkpt lat="44.48832" lon="1.28413">
        <ele>182.76347333333</ele>
        <time>2019-11-21T13:54:56Z</time>
      </trkpt>
      <trkpt lat="44.4884" lon="1.28411">
        <ele>188.96356</ele>
        <time>2019-11-21T13:55:10Z</time>
      </trkpt>
      <trkpt lat="44.48848" lon="1.28415">
        <ele>189.36339333333</ele>
        <time>2019-11-21T13:55:28Z</time>
      </trkpt>
      <trkpt lat="44.48856" lon="1.28418">
        <ele>192.86326666667</ele>
        <time>2019-11-21T13:55:45Z</time>
      </trkpt>
      <trkpt lat="44.48863" lon="1.2842">
        <ele>193.3632</ele>
        <time>2019-11-21T13:55:59Z</time>
      </trkpt>
      <trkpt lat="44.48871" lon="1.28423">
        <ele>192.86309333333</ele>
        <time>2019-11-21T13:56:20Z</time>
      </trkpt>
      <trkpt lat="44.48879" lon="1.28423">
        <ele>193.56308</ele>
        <time>2019-11-21T13:56:31Z</time>
      </trkpt>
      <trkpt lat="44.48888" lon="1.28423">
        <ele>201.36306666667</ele>
        <time>2019-11-21T13:56:46Z</time>
      </trkpt>
      <trkpt lat="44.48897" lon="1.28426">
        <ele>202.36295333333</ele>
        <time>2019-11-21T13:56:56Z</time>
      </trkpt>
      <trkpt lat="44.48905" lon="1.28427">
        <ele>202.36290666667</ele>
        <time>2019-11-21T13:57:04Z</time>
      </trkpt>
      <trkpt lat="44.48912" lon="1.28428">
        <ele>204.96288666667</ele>
        <time>2019-11-21T13:57:13Z</time>
      </trkpt>
      <trkpt lat="44.4892" lon="1.28431">
        <ele>201.16278</ele>
        <time>2019-11-21T13:57:19Z</time>
      </trkpt>
      <trkpt lat="44.48928" lon="1.28431">
        <ele>199.86275333333</ele>
        <time>2019-11-21T13:57:24Z</time>
      </trkpt>
      <trkpt lat="44.48936" lon="1.28433">
        <ele>199.56268</ele>
        <time>2019-11-21T13:57:31Z</time>
      </trkpt>
      <trkpt lat="44.48944" lon="1.28438">
        <ele>201.16247333333</ele>
        <time>2019-11-21T13:57:40Z</time>
      </trkpt>
      <trkpt lat="44.48952" lon="1.28443">
        <ele>201.06228666667</ele>
        <time>2019-11-21T13:57:51Z</time>
      </trkpt>
      <trkpt lat="44.48961" lon="1.28445">
        <ele>199.46220666667</ele>
        <time>2019-11-21T13:58:03Z</time>
      </trkpt>
      <trkpt lat="44.48968" lon="1.28449">
        <ele>197.36204</ele>
        <time>2019-11-21T13:58:15Z</time>
      </trkpt>
      <trkpt lat="44.48976" lon="1.28455">
        <ele>200.1618</ele>
        <time>2019-11-21T13:58:25Z</time>
      </trkpt>
      <trkpt lat="44.48985" lon="1.28459">
        <ele>203.36166</ele>
        <time>2019-11-21T13:58:34Z</time>
      </trkpt>
      <trkpt lat="44.48993" lon="1.28463">
        <ele>206.46148</ele>
        <time>2019-11-21T13:58:43Z</time>
      </trkpt>
      <trkpt lat="44.49" lon="1.28469">
        <ele>207.26126</ele>
        <time>2019-11-21T13:59:07Z</time>
      </trkpt>
      <trkpt lat="44.49007" lon="1.28474">
        <ele>207.76103333333</ele>
        <time>2019-11-21T13:59:19Z</time>
      </trkpt>
      <trkpt lat="44.49016" lon="1.28476">
        <ele>207.26098</ele>
        <time>2019-11-21T13:59:29Z</time>
      </trkpt>
      <trkpt lat="44.49022" lon="1.2848">
        <ele>207.06081333333</ele>
        <time>2019-11-21T14:00:27Z</time>
      </trkpt>
      <trkpt lat="44.49029" lon="1.28486">
        <ele>199.46056666667</ele>
        <time>2019-11-21T14:00:32Z</time>
      </trkpt>
      <trkpt lat="44.49037" lon="1.28486">
        <ele>196.86056</ele>
        <time>2019-11-21T14:00:37Z</time>
      </trkpt>
      <trkpt lat="44.49045" lon="1.2849">
        <ele>195.5604</ele>
        <time>2019-11-21T14:00:47Z</time>
      </trkpt>
      <trkpt lat="44.49053" lon="1.28495">
        <ele>196.66019333333</ele>
        <time>2019-11-21T14:01:18Z</time>
      </trkpt>
      <trkpt lat="44.49061" lon="1.28491">
        <ele>195.06035333333</ele>
        <time>2019-11-21T14:02:00Z</time>
      </trkpt>
      <trkpt lat="44.49067" lon="1.28483">
        <ele>193.56066666667</ele>
        <time>2019-11-21T14:02:08Z</time>
      </trkpt>
      <trkpt lat="44.49075" lon="1.28479">
        <ele>191.66085333333</ele>
        <time>2019-11-21T14:02:15Z</time>
      </trkpt>
      <trkpt lat="44.49084" lon="1.28477">
        <ele>190.56092</ele>
        <time>2019-11-21T14:02:22Z</time>
      </trkpt>
      <trkpt lat="44.49092" lon="1.28473">
        <ele>192.4611</ele>
        <time>2019-11-21T14:02:29Z</time>
      </trkpt>
      <trkpt lat="44.49101" lon="1.2847">
        <ele>190.56121333333</ele>
        <time>2019-11-21T14:02:36Z</time>
      </trkpt>
      <trkpt lat="44.49109" lon="1.28466">
        <ele>192.96138</ele>
        <time>2019-11-21T14:02:46Z</time>
      </trkpt>
      <trkpt lat="44.49116" lon="1.28458">
        <ele>197.06168</ele>
        <time>2019-11-21T14:02:53Z</time>
      </trkpt>
      <trkpt lat="44.49124" lon="1.28454">
        <ele>199.06184</ele>
        <time>2019-11-21T14:03:01Z</time>
      </trkpt>
      <trkpt lat="44.49132" lon="1.28451">
        <ele>199.26197333333</ele>
        <time>2019-11-21T14:03:07Z</time>
      </trkpt>
      <trkpt lat="44.49138" lon="1.28445">
        <ele>198.96218666667</ele>
        <time>2019-11-21T14:03:12Z</time>
      </trkpt>
      <trkpt lat="44.49145" lon="1.28439">
        <ele>197.06245333333</ele>
        <time>2019-11-21T14:03:18Z</time>
      </trkpt>
      <trkpt lat="44.49152" lon="1.28433">
        <ele>197.36267333333</ele>
        <time>2019-11-21T14:03:25Z</time>
      </trkpt>
      <trkpt lat="44.49159" lon="1.28426">
        <ele>200.86296</ele>
        <time>2019-11-21T14:03:34Z</time>
      </trkpt>
      <trkpt lat="44.49166" lon="1.2842">
        <ele>203.26321333333</ele>
        <time>2019-11-21T14:03:43Z</time>
      </trkpt>
      <trkpt lat="44.49173" lon="1.28412">
        <ele>204.76352666667</ele>
        <time>2019-11-21T14:03:51Z</time>
      </trkpt>
      <trkpt lat="44.4918" lon="1.28404">
        <ele>204.56383333333</ele>
        <time>2019-11-21T14:03:59Z</time>
      </trkpt>
      <trkpt lat="44.49186" lon="1.28397">
        <ele>206.06412</ele>
        <time>2019-11-21T14:04:15Z</time>
      </trkpt>
      <trkpt lat="44.49193" lon="1.28392">
        <ele>205.06431333333</ele>
        <time>2019-11-21T14:04:24Z</time>
      </trkpt>
      <trkpt lat="44.49201" lon="1.28387">
        <ele>205.16450666667</ele>
        <time>2019-11-21T14:04:30Z</time>
      </trkpt>
      <trkpt lat="44.49209" lon="1.28383">
        <ele>204.36467333333</ele>
        <time>2019-11-21T14:04:37Z</time>
      </trkpt>
      <trkpt lat="44.49217" lon="1.28381">
        <ele>203.96476</ele>
        <time>2019-11-21T14:04:45Z</time>
      </trkpt>
      <trkpt lat="44.49225" lon="1.28378">
        <ele>204.26489333333</ele>
        <time>2019-11-21T14:04:52Z</time>
      </trkpt>
      <trkpt lat="44.49233" lon="1.28372">
        <ele>206.06512</ele>
        <time>2019-11-21T14:05:00Z</time>
      </trkpt>
      <trkpt lat="44.49241" lon="1.28368">
        <ele>207.16528</ele>
        <time>2019-11-21T14:05:08Z</time>
      </trkpt>
      <trkpt lat="44.49248" lon="1.28363">
        <ele>208.56548</ele>
        <time>2019-11-21T14:05:17Z</time>
      </trkpt>
      <trkpt lat="44.49255" lon="1.28357">
        <ele>211.06570666667</ele>
        <time>2019-11-21T14:05:28Z</time>
      </trkpt>
      <trkpt lat="44.49263" lon="1.28352">
        <ele>213.46592</ele>
        <time>2019-11-21T14:05:36Z</time>
      </trkpt>
      <trkpt lat="44.49271" lon="1.28349">
        <ele>211.66604666667</ele>
        <time>2019-11-21T14:05:50Z</time>
      </trkpt>
      <trkpt lat="44.49278" lon="1.28343">
        <ele>210.16627333333</ele>
        <time>2019-11-21T14:05:56Z</time>
      </trkpt>
      <trkpt lat="44.49285" lon="1.28338">
        <ele>209.46649333333</ele>
        <time>2019-11-21T14:06:05Z</time>
      </trkpt>
      <trkpt lat="44.49293" lon="1.28336">
        <ele>211.06657333333</ele>
        <time>2019-11-21T14:06:14Z</time>
      </trkpt>
      <trkpt lat="44.49301" lon="1.28335">
        <ele>210.76660666667</ele>
        <time>2019-11-21T14:06:19Z</time>
      </trkpt>
      <trkpt lat="44.49309" lon="1.28332">
        <ele>211.56673333333</ele>
        <time>2019-11-21T14:06:24Z</time>
      </trkpt>
      <trkpt lat="44.49318" lon="1.28327">
        <ele>209.66692</ele>
        <time>2019-11-21T14:06:35Z</time>
      </trkpt>
      <trkpt lat="44.49325" lon="1.28323">
        <ele>209.06706666667</ele>
        <time>2019-11-21T14:06:41Z</time>
      </trkpt>
      <trkpt lat="44.49333" lon="1.2832">
        <ele>206.76721333333</ele>
        <time>2019-11-21T14:06:48Z</time>
      </trkpt>
      <trkpt lat="44.49341" lon="1.28316">
        <ele>206.66737333333</ele>
        <time>2019-11-21T14:06:54Z</time>
      </trkpt>
      <trkpt lat="44.49348" lon="1.28311">
        <ele>208.06754666667</ele>
        <time>2019-11-21T14:07:00Z</time>
      </trkpt>
      <trkpt lat="44.49355" lon="1.28306">
        <ele>208.76774666667</ele>
        <time>2019-11-21T14:07:06Z</time>
      </trkpt>
      <trkpt lat="44.49363" lon="1.28302">
        <ele>203.96792666667</ele>
        <time>2019-11-21T14:07:14Z</time>
      </trkpt>
      <trkpt lat="44.49369" lon="1.28294">
        <ele>201.36822666667</ele>
        <time>2019-11-21T14:07:22Z</time>
      </trkpt>
      <trkpt lat="44.49376" lon="1.2829">
        <ele>201.56840666667</ele>
        <time>2019-11-21T14:07:28Z</time>
      </trkpt>
      <trkpt lat="44.49381" lon="1.28281">
        <ele>201.86876</ele>
        <time>2019-11-21T14:07:36Z</time>
      </trkpt>
      <trkpt lat="44.4938" lon="1.28269">
        <ele>201.46923333333</ele>
        <time>2019-11-21T14:07:46Z</time>
      </trkpt>
      <trkpt lat="44.49383" lon="1.28259">
        <ele>203.66965333333</ele>
        <time>2019-11-21T14:07:53Z</time>
      </trkpt>
      <trkpt lat="44.49388" lon="1.28249">
        <ele>203.17006</ele>
        <time>2019-11-21T14:07:59Z</time>
      </trkpt>
      <trkpt lat="44.49392" lon="1.28237">
        <ele>202.67050666667</ele>
        <time>2019-11-21T14:08:06Z</time>
      </trkpt>
      <trkpt lat="44.49399" lon="1.28231">
        <ele>203.37077333333</ele>
        <time>2019-11-21T14:08:11Z</time>
      </trkpt>
      <trkpt lat="44.49404" lon="1.28219">
        <ele>203.27126</ele>
        <time>2019-11-21T14:08:16Z</time>
      </trkpt>
      <trkpt lat="44.49401" lon="1.28208">
        <ele>201.27169333333</ele>
        <time>2019-11-21T14:08:24Z</time>
      </trkpt>
      <trkpt lat="44.494" lon="1.28196">
        <ele>201.47215333333</ele>
        <time>2019-11-21T14:08:32Z</time>
      </trkpt>
      <trkpt lat="44.49403" lon="1.28185">
        <ele>199.9726</ele>
        <time>2019-11-21T14:08:41Z</time>
      </trkpt>
      <trkpt lat="44.49404" lon="1.28173">
        <ele>199.17308666667</ele>
        <time>2019-11-21T14:08:50Z</time>
      </trkpt>
      <trkpt lat="44.49407" lon="1.28162">
        <ele>201.57352</ele>
        <time>2019-11-21T14:08:57Z</time>
      </trkpt>
      <trkpt lat="44.49407" lon="1.2815">
        <ele>202.274</ele>
        <time>2019-11-21T14:09:03Z</time>
      </trkpt>
      <trkpt lat="44.49409" lon="1.2814">
        <ele>200.87442</ele>
        <time>2019-11-21T14:09:10Z</time>
      </trkpt>
      <trkpt lat="44.49413" lon="1.2813">
        <ele>197.27480666667</ele>
        <time>2019-11-21T14:09:16Z</time>
      </trkpt>
      <trkpt lat="44.49415" lon="1.28118">
        <ele>198.27529333333</ele>
        <time>2019-11-21T14:09:24Z</time>
      </trkpt>
      <trkpt lat="44.49417" lon="1.28106">
        <ele>200.97574666667</ele>
        <time>2019-11-21T14:09:32Z</time>
      </trkpt>
      <trkpt lat="44.49416" lon="1.28094">
        <ele>205.77623333333</ele>
        <time>2019-11-21T14:09:40Z</time>
      </trkpt>
      <trkpt lat="44.49417" lon="1.28083">
        <ele>207.47668666667</ele>
        <time>2019-11-21T14:09:47Z</time>
      </trkpt>
      <trkpt lat="44.49419" lon="1.28071">
        <ele>206.97715333333</ele>
        <time>2019-11-21T14:09:56Z</time>
      </trkpt>
      <trkpt lat="44.49421" lon="1.28059">
        <ele>207.77763333333</ele>
        <time>2019-11-21T14:10:04Z</time>
      </trkpt>
      <trkpt lat="44.49422" lon="1.28048">
        <ele>206.77808</ele>
        <time>2019-11-21T14:10:11Z</time>
      </trkpt>
      <trkpt lat="44.49422" lon="1.28037">
        <ele>206.97850666667</ele>
        <time>2019-11-21T14:10:18Z</time>
      </trkpt>
      <trkpt lat="44.49422" lon="1.28026">
        <ele>207.57895333333</ele>
        <time>2019-11-21T14:10:24Z</time>
      </trkpt>
      <trkpt lat="44.49424" lon="1.28015">
        <ele>206.87938666667</ele>
        <time>2019-11-21T14:10:30Z</time>
      </trkpt>
      <trkpt lat="44.49423" lon="1.28003">
        <ele>205.57987333333</ele>
        <time>2019-11-21T14:10:38Z</time>
      </trkpt>
      <trkpt lat="44.49422" lon="1.27992">
        <ele>204.78032666667</ele>
        <time>2019-11-21T14:10:46Z</time>
      </trkpt>
      <trkpt lat="44.49418" lon="1.27981">
        <ele>202.88076666667</ele>
        <time>2019-11-21T14:10:54Z</time>
      </trkpt>
      <trkpt lat="44.49414" lon="1.27971">
        <ele>204.38116666667</ele>
        <time>2019-11-21T14:11:02Z</time>
      </trkpt>
      <trkpt lat="44.49408" lon="1.27964">
        <ele>205.78146</ele>
        <time>2019-11-21T14:11:09Z</time>
      </trkpt>
      <trkpt lat="44.494" lon="1.27956">
        <ele>211.08174666667</ele>
        <time>2019-11-21T14:11:16Z</time>
      </trkpt>
      <trkpt lat="44.49398" lon="1.27946">
        <ele>210.98214666667</ele>
        <time>2019-11-21T14:11:21Z</time>
      </trkpt>
      <trkpt lat="44.49397" lon="1.27934">
        <ele>203.78264</ele>
        <time>2019-11-21T14:11:28Z</time>
      </trkpt>
      <trkpt lat="44.49392" lon="1.27925">
        <ele>203.583</ele>
        <time>2019-11-21T14:11:34Z</time>
      </trkpt>
      <trkpt lat="44.49388" lon="1.27915">
        <ele>201.28340666667</ele>
        <time>2019-11-21T14:11:39Z</time>
      </trkpt>
      <trkpt lat="44.49387" lon="1.27903">
        <ele>199.08387333333</ele>
        <time>2019-11-21T14:11:46Z</time>
      </trkpt>
      <trkpt lat="44.49384" lon="1.27892">
        <ele>198.58430666667</ele>
        <time>2019-11-21T14:11:54Z</time>
      </trkpt>
      <trkpt lat="44.49382" lon="1.27881">
        <ele>197.68477333333</ele>
        <time>2019-11-21T14:12:05Z</time>
      </trkpt>
      <trkpt lat="44.4938" lon="1.27869">
        <ele>198.78523333333</ele>
        <time>2019-11-21T14:12:13Z</time>
      </trkpt>
      <trkpt lat="44.49377" lon="1.27861">
        <ele>198.98557333333</ele>
        <time>2019-11-21T14:12:18Z</time>
      </trkpt>
      <trkpt lat="44.49374" lon="1.2785">
        <ele>201.78599333333</ele>
        <time>2019-11-21T14:12:24Z</time>
      </trkpt>
      <trkpt lat="44.49372" lon="1.2784">
        <ele>201.78642</ele>
        <time>2019-11-21T14:12:30Z</time>
      </trkpt>
      <trkpt lat="44.49371" lon="1.27827">
        <ele>203.58690666667</ele>
        <time>2019-11-21T14:12:38Z</time>
      </trkpt>
      <trkpt lat="44.4937" lon="1.27815">
        <ele>204.9874</ele>
        <time>2019-11-21T14:12:46Z</time>
      </trkpt>
      <trkpt lat="44.4937" lon="1.27804">
        <ele>204.38786</ele>
        <time>2019-11-21T14:12:54Z</time>
      </trkpt>
      <trkpt lat="44.49367" lon="1.27792">
        <ele>207.38833333333</ele>
        <time>2019-11-21T14:13:02Z</time>
      </trkpt>
      <trkpt lat="44.49362" lon="1.27782">
        <ele>210.38873333333</ele>
        <time>2019-11-21T14:13:09Z</time>
      </trkpt>
      <trkpt lat="44.49357" lon="1.27773">
        <ele>209.68906666667</ele>
        <time>2019-11-21T14:13:15Z</time>
      </trkpt>
      <trkpt lat="44.49351" lon="1.27768">
        <ele>208.88928666667</ele>
        <time>2019-11-21T14:13:20Z</time>
      </trkpt>
      <trkpt lat="44.49344" lon="1.2776">
        <ele>195.9896</ele>
        <time>2019-11-21T14:13:27Z</time>
      </trkpt>
      <trkpt lat="44.49339" lon="1.2775">
        <ele>194.19000666667</ele>
        <time>2019-11-21T14:13:34Z</time>
      </trkpt>
      <trkpt lat="44.49335" lon="1.27739">
        <ele>196.29044</ele>
        <time>2019-11-21T14:13:41Z</time>
      </trkpt>
      <trkpt lat="44.49333" lon="1.27728">
        <ele>195.79088666667</ele>
        <time>2019-11-21T14:13:46Z</time>
      </trkpt>
      <trkpt lat="44.49334" lon="1.27716">
        <ele>191.89134666667</ele>
        <time>2019-11-21T14:13:52Z</time>
      </trkpt>
      <trkpt lat="44.49329" lon="1.27707">
        <ele>192.39174</ele>
        <time>2019-11-21T14:13:59Z</time>
      </trkpt>
      <trkpt lat="44.49322" lon="1.27699">
        <ele>184.69204</ele>
        <time>2019-11-21T14:14:06Z</time>
      </trkpt>
      <trkpt lat="44.49315" lon="1.27691">
        <ele>182.39235333333</ele>
        <time>2019-11-21T14:14:15Z</time>
      </trkpt>
      <trkpt lat="44.49308" lon="1.27686">
        <ele>186.49255333333</ele>
        <time>2019-11-21T14:14:34Z</time>
      </trkpt>
      <trkpt lat="44.493" lon="1.27686">
        <ele>187.79257333333</ele>
        <time>2019-11-21T14:14:41Z</time>
      </trkpt>
      <trkpt lat="44.49293" lon="1.27686">
        <ele>190.09255333333</ele>
        <time>2019-11-21T14:14:47Z</time>
      </trkpt>
      <trkpt lat="44.49284" lon="1.27687">
        <ele>185.19252</ele>
        <time>2019-11-21T14:14:58Z</time>
      </trkpt>
      <trkpt lat="44.49277" lon="1.27687">
        <ele>190.89254</ele>
        <time>2019-11-21T14:15:09Z</time>
      </trkpt>
      <trkpt lat="44.4927" lon="1.27689">
        <ele>193.59244666667</ele>
        <time>2019-11-21T14:15:14Z</time>
      </trkpt>
      <trkpt lat="44.49261" lon="1.27691">
        <ele>195.99236</ele>
        <time>2019-11-21T14:15:19Z</time>
      </trkpt>
      <trkpt lat="44.49254" lon="1.2769">
        <ele>196.69242</ele>
        <time>2019-11-21T14:15:23Z</time>
      </trkpt>
      <trkpt lat="44.49244" lon="1.27691">
        <ele>196.99238</ele>
        <time>2019-11-21T14:15:28Z</time>
      </trkpt>
      <trkpt lat="44.49237" lon="1.27691">
        <ele>197.89237333333</ele>
        <time>2019-11-21T14:15:35Z</time>
      </trkpt>
      <trkpt lat="44.4923" lon="1.2769">
        <ele>198.19240666667</ele>
        <time>2019-11-21T14:15:40Z</time>
      </trkpt>
      <trkpt lat="44.49221" lon="1.27689">
        <ele>198.09246</ele>
        <time>2019-11-21T14:15:48Z</time>
      </trkpt>
      <trkpt lat="44.49212" lon="1.27689">
        <ele>201.09244</ele>
        <time>2019-11-21T14:15:56Z</time>
      </trkpt>
      <trkpt lat="44.49203" lon="1.27687">
        <ele>200.69252</ele>
        <time>2019-11-21T14:16:04Z</time>
      </trkpt>
      <trkpt lat="44.49196" lon="1.27688">
        <ele>203.49246666667</ele>
        <time>2019-11-21T14:16:12Z</time>
      </trkpt>
      <trkpt lat="44.49188" lon="1.27686">
        <ele>196.89256666667</ele>
        <time>2019-11-21T14:16:17Z</time>
      </trkpt>
      <trkpt lat="44.49179" lon="1.27686">
        <ele>189.49255333333</ele>
        <time>2019-11-21T14:16:27Z</time>
      </trkpt>
      <trkpt lat="44.49171" lon="1.2769">
        <ele>191.59240666667</ele>
        <time>2019-11-21T14:16:37Z</time>
      </trkpt>
      <trkpt lat="44.49163" lon="1.27691">
        <ele>191.09238</ele>
        <time>2019-11-21T14:16:44Z</time>
      </trkpt>
      <trkpt lat="44.49154" lon="1.27689">
        <ele>183.79246</ele>
        <time>2019-11-21T14:17:00Z</time>
      </trkpt>
      <trkpt lat="44.49146" lon="1.27688">
        <ele>183.59247333333</ele>
        <time>2019-11-21T14:17:09Z</time>
      </trkpt>
      <trkpt lat="44.49138" lon="1.27683">
        <ele>182.8927</ele>
        <time>2019-11-21T14:17:17Z</time>
      </trkpt>
      <trkpt lat="44.49133" lon="1.27675">
        <ele>178.59302</ele>
        <time>2019-11-21T14:17:28Z</time>
      </trkpt>
      <trkpt lat="44.49128" lon="1.27665">
        <ele>170.69338666667</ele>
        <time>2019-11-21T14:17:35Z</time>
      </trkpt>
      <trkpt lat="44.49125" lon="1.27655">
        <ele>166.59380666667</ele>
        <time>2019-11-21T14:17:49Z</time>
      </trkpt>
      <trkpt lat="44.4912" lon="1.27645">
        <ele>169.89421333333</ele>
        <time>2019-11-21T14:17:58Z</time>
      </trkpt>
      <trkpt lat="44.49118" lon="1.27632">
        <ele>177.19470666667</ele>
        <time>2019-11-21T14:18:14Z</time>
      </trkpt>
      <trkpt lat="44.49124" lon="1.27625">
        <ele>176.99502</ele>
        <time>2019-11-21T14:21:46Z</time>
      </trkpt>
      <trkpt lat="44.49127" lon="1.27614">
        <ele>171.19544666667</ele>
        <time>2019-11-21T14:21:54Z</time>
      </trkpt>
      <trkpt lat="44.4913" lon="1.27603">
        <ele>162.69588666667</ele>
        <time>2019-11-21T14:22:06Z</time>
      </trkpt>
      <trkpt lat="44.4913" lon="1.27591">
        <ele>161.39637333333</ele>
        <time>2019-11-21T14:22:21Z</time>
      </trkpt>
      <trkpt lat="44.49125" lon="1.27581">
        <ele>167.09677333333</ele>
        <time>2019-11-21T14:22:34Z</time>
      </trkpt>
      <trkpt lat="44.49119" lon="1.27573">
        <ele>170.59709333333</ele>
        <time>2019-11-21T14:22:43Z</time>
      </trkpt>
      <trkpt lat="44.49112" lon="1.27566">
        <ele>172.69736666667</ele>
        <time>2019-11-21T14:22:51Z</time>
      </trkpt>
      <trkpt lat="44.49107" lon="1.27557">
        <ele>171.19772</ele>
        <time>2019-11-21T14:23:00Z</time>
      </trkpt>
      <trkpt lat="44.49101" lon="1.27548">
        <ele>171.99808</ele>
        <time>2019-11-21T14:23:09Z</time>
      </trkpt>
      <trkpt lat="44.49095" lon="1.27539">
        <ele>172.49842666667</ele>
        <time>2019-11-21T14:23:16Z</time>
      </trkpt>
      <trkpt lat="44.49088" lon="1.27532">
        <ele>172.79872</ele>
        <time>2019-11-21T14:23:24Z</time>
      </trkpt>
      <trkpt lat="44.49083" lon="1.27523">
        <ele>171.29907333333</ele>
        <time>2019-11-21T14:23:38Z</time>
      </trkpt>
      <trkpt lat="44.49075" lon="1.27519">
        <ele>170.09924</ele>
        <time>2019-11-21T14:23:46Z</time>
      </trkpt>
      <trkpt lat="44.49066" lon="1.27517">
        <ele>172.29932</ele>
        <time>2019-11-21T14:23:56Z</time>
      </trkpt>
      <trkpt lat="44.49058" lon="1.27512">
        <ele>173.19952666667</ele>
        <time>2019-11-21T14:24:03Z</time>
      </trkpt>
      <trkpt lat="44.49051" lon="1.27506">
        <ele>170.69974666667</ele>
        <time>2019-11-21T14:24:11Z</time>
      </trkpt>
      <trkpt lat="44.49043" lon="1.27503">
        <ele>172.3999</ele>
        <time>2019-11-21T14:24:21Z</time>
      </trkpt>
      <trkpt lat="44.49035" lon="1.27498">
        <ele>171.00007333333</ele>
        <time>2019-11-21T14:24:30Z</time>
      </trkpt>
      <trkpt lat="44.49027" lon="1.27495">
        <ele>171.40022</ele>
        <time>2019-11-21T14:24:39Z</time>
      </trkpt>
      <trkpt lat="44.49019" lon="1.2749">
        <ele>172.70042</ele>
        <time>2019-11-21T14:24:49Z</time>
      </trkpt>
      <trkpt lat="44.49011" lon="1.27486">
        <ele>172.00057333333</ele>
        <time>2019-11-21T14:24:54Z</time>
      </trkpt>
      <trkpt lat="44.49004" lon="1.27482">
        <ele>172.10071333333</ele>
        <time>2019-11-21T14:25:02Z</time>
      </trkpt>
      <trkpt lat="44.48997" lon="1.27476">
        <ele>172.00095333333</ele>
        <time>2019-11-21T14:25:11Z</time>
      </trkpt>
      <trkpt lat="44.48988" lon="1.27473">
        <ele>171.40106666667</ele>
        <time>2019-11-21T14:25:18Z</time>
      </trkpt>
      <trkpt lat="44.48979" lon="1.27472">
        <ele>172.60113333333</ele>
        <time>2019-11-21T14:25:29Z</time>
      </trkpt>
      <trkpt lat="44.4897" lon="1.2747">
        <ele>173.10120666667</ele>
        <time>2019-11-21T14:25:38Z</time>
      </trkpt>
      <trkpt lat="44.48962" lon="1.27469">
        <ele>173.00124666667</ele>
        <time>2019-11-21T14:25:46Z</time>
      </trkpt>
      <trkpt lat="44.48954" lon="1.27467">
        <ele>172.70132666667</ele>
        <time>2019-11-21T14:25:58Z</time>
      </trkpt>
      <trkpt lat="44.48945" lon="1.27468">
        <ele>171.30128</ele>
        <time>2019-11-21T14:26:09Z</time>
      </trkpt>
      <trkpt lat="44.48937" lon="1.27469">
        <ele>171.00122666667</ele>
        <time>2019-11-21T14:26:17Z</time>
      </trkpt>
      <trkpt lat="44.48928" lon="1.27471">
        <ele>170.40116</ele>
        <time>2019-11-21T14:26:25Z</time>
      </trkpt>
      <trkpt lat="44.4892" lon="1.27472">
        <ele>169.70110666667</ele>
        <time>2019-11-21T14:26:35Z</time>
      </trkpt>
      <trkpt lat="44.48911" lon="1.27473">
        <ele>165.20108</ele>
        <time>2019-11-21T14:26:51Z</time>
      </trkpt>
      <trkpt lat="44.48903" lon="1.27476">
        <ele>165.10097333333</ele>
        <time>2019-11-21T14:27:01Z</time>
      </trkpt>
      <trkpt lat="44.48894" lon="1.2748">
        <ele>165.60079333333</ele>
        <time>2019-11-21T14:27:12Z</time>
      </trkpt>
      <trkpt lat="44.48886" lon="1.27483">
        <ele>162.50067333333</ele>
        <time>2019-11-21T14:27:26Z</time>
      </trkpt>
      <trkpt lat="44.48878" lon="1.27484">
        <ele>160.60063333333</ele>
        <time>2019-11-21T14:27:32Z</time>
      </trkpt>
      <trkpt lat="44.4887" lon="1.27485">
        <ele>160.9006</ele>
        <time>2019-11-21T14:27:38Z</time>
      </trkpt>
      <trkpt lat="44.48861" lon="1.27485">
        <ele>161.80059333333</ele>
        <time>2019-11-21T14:27:45Z</time>
      </trkpt>
      <trkpt lat="44.48853" lon="1.27487">
        <ele>164.50054</ele>
        <time>2019-11-21T14:27:54Z</time>
      </trkpt>
      <trkpt lat="44.48844" lon="1.27488">
        <ele>164.50047333333</ele>
        <time>2019-11-21T14:28:04Z</time>
      </trkpt>
      <trkpt lat="44.48836" lon="1.27488">
        <ele>163.40047333333</ele>
        <time>2019-11-21T14:28:15Z</time>
      </trkpt>
      <trkpt lat="44.48828" lon="1.27493">
        <ele>164.00027333333</ele>
        <time>2019-11-21T14:28:27Z</time>
      </trkpt>
      <trkpt lat="44.48819" lon="1.27495">
        <ele>163.5002</ele>
        <time>2019-11-21T14:28:33Z</time>
      </trkpt>
      <trkpt lat="44.48811" lon="1.27501">
        <ele>163.29998</ele>
        <time>2019-11-21T14:28:42Z</time>
      </trkpt>
      <trkpt lat="44.48803" lon="1.27505">
        <ele>165.39979333333</ele>
        <time>2019-11-21T14:29:55Z</time>
      </trkpt>
      <trkpt lat="44.48796" lon="1.27512">
        <ele>165.19952</ele>
        <time>2019-11-21T14:30:06Z</time>
      </trkpt>
      <trkpt lat="44.48791" lon="1.27519">
        <ele>165.09923333333</ele>
        <time>2019-11-21T14:30:15Z</time>
      </trkpt>
      <trkpt lat="44.48786" lon="1.27527">
        <ele>163.89894</ele>
        <time>2019-11-21T14:30:23Z</time>
      </trkpt>
      <trkpt lat="44.4878" lon="1.27535">
        <ele>162.09858666667</ele>
        <time>2019-11-21T14:30:33Z</time>
      </trkpt>
      <trkpt lat="44.48776" lon="1.27546">
        <ele>163.29814666667</ele>
        <time>2019-11-21T14:30:47Z</time>
      </trkpt>
      <trkpt lat="44.48773" lon="1.27558">
        <ele>164.39769333333</ele>
        <time>2019-11-21T14:30:56Z</time>
      </trkpt>
      <trkpt lat="44.48773" lon="1.27569">
        <ele>165.49723333333</ele>
        <time>2019-11-21T14:31:05Z</time>
      </trkpt>
      <trkpt lat="44.4877" lon="1.27581">
        <ele>166.59677333333</ele>
        <time>2019-11-21T14:31:13Z</time>
      </trkpt>
      <trkpt lat="44.48773" lon="1.27591">
        <ele>166.99634666667</ele>
        <time>2019-11-21T14:31:21Z</time>
      </trkpt>
      <trkpt lat="44.48782" lon="1.27595">
        <ele>165.69619333333</ele>
        <time>2019-11-21T14:31:36Z</time>
      </trkpt>
      <trkpt lat="44.48787" lon="1.27605">
        <ele>164.29579333333</ele>
        <time>2019-11-21T14:32:12Z</time>
      </trkpt>
      <trkpt lat="44.48794" lon="1.27598">
        <ele>166.69608</ele>
        <time>2019-11-21T14:34:13Z</time>
      </trkpt>
      <trkpt lat="44.48801" lon="1.27596">
        <ele>166.59618</ele>
        <time>2019-11-21T14:34:21Z</time>
      </trkpt>
      <trkpt lat="44.4881" lon="1.27593">
        <ele>167.39627333333</ele>
        <time>2019-11-21T14:34:29Z</time>
      </trkpt>
      <trkpt lat="44.48819" lon="1.27592">
        <ele>167.79634</ele>
        <time>2019-11-21T14:34:37Z</time>
      </trkpt>
      <trkpt lat="44.48827" lon="1.2759">
        <ele>168.2964</ele>
        <time>2019-11-21T14:34:45Z</time>
      </trkpt>
      <trkpt lat="44.48836" lon="1.2759">
        <ele>169.39640666667</ele>
        <time>2019-11-21T14:34:52Z</time>
      </trkpt>
      <trkpt lat="44.48844" lon="1.27592">
        <ele>169.69631333333</ele>
        <time>2019-11-21T14:35:06Z</time>
      </trkpt>
      <trkpt lat="44.48852" lon="1.27592">
        <ele>171.99633333333</ele>
        <time>2019-11-21T14:35:14Z</time>
      </trkpt>
      <trkpt lat="44.48859" lon="1.27593">
        <ele>173.49629333333</ele>
        <time>2019-11-21T14:35:22Z</time>
      </trkpt>
      <trkpt lat="44.48868" lon="1.27596">
        <ele>174.69618</ele>
        <time>2019-11-21T14:35:29Z</time>
      </trkpt>
      <trkpt lat="44.48876" lon="1.27599">
        <ele>174.59605333333</ele>
        <time>2019-11-21T14:35:36Z</time>
      </trkpt>
      <trkpt lat="44.48883" lon="1.27602">
        <ele>174.39592666667</ele>
        <time>2019-11-21T14:35:42Z</time>
      </trkpt>
      <trkpt lat="44.48891" lon="1.27605">
        <ele>173.29578666667</ele>
        <time>2019-11-21T14:35:49Z</time>
      </trkpt>
      <trkpt lat="44.48899" lon="1.2761">
        <ele>171.89561333333</ele>
        <time>2019-11-21T14:35:56Z</time>
      </trkpt>
      <trkpt lat="44.48907" lon="1.27614">
        <ele>170.09543333333</ele>
        <time>2019-11-21T14:36:04Z</time>
      </trkpt>
      <trkpt lat="44.48915" lon="1.27618">
        <ele>171.39528</ele>
        <time>2019-11-21T14:36:12Z</time>
      </trkpt>
      <trkpt lat="44.48923" lon="1.27623">
        <ele>173.8951</ele>
        <time>2019-11-21T14:36:20Z</time>
      </trkpt>
      <trkpt lat="44.48932" lon="1.27624">
        <ele>176.49504</ele>
        <time>2019-11-21T14:36:29Z</time>
      </trkpt>
      <trkpt lat="44.4894" lon="1.27625">
        <ele>178.595</ele>
        <time>2019-11-21T14:36:38Z</time>
      </trkpt>
      <trkpt lat="44.48949" lon="1.27624">
        <ele>179.09503333333</ele>
        <time>2019-11-21T14:36:46Z</time>
      </trkpt>
      <trkpt lat="44.48957" lon="1.27624">
        <ele>178.59503333333</ele>
        <time>2019-11-21T14:36:53Z</time>
      </trkpt>
      <trkpt lat="44.48965" lon="1.27626">
        <ele>178.99496666667</ele>
        <time>2019-11-21T14:37:00Z</time>
      </trkpt>
      <trkpt lat="44.48973" lon="1.27628">
        <ele>178.69488666667</ele>
        <time>2019-11-21T14:37:07Z</time>
      </trkpt>
      <trkpt lat="44.48981" lon="1.27633">
        <ele>175.99469333333</ele>
        <time>2019-11-21T14:37:14Z</time>
      </trkpt>
      <trkpt lat="44.48988" lon="1.27639">
        <ele>173.69446</ele>
        <time>2019-11-21T14:37:20Z</time>
      </trkpt>
      <trkpt lat="44.48996" lon="1.27643">
        <ele>173.29427333333</ele>
        <time>2019-11-21T14:37:28Z</time>
      </trkpt>
      <trkpt lat="44.49004" lon="1.27648">
        <ele>174.09409333333</ele>
        <time>2019-11-21T14:37:37Z</time>
      </trkpt>
      <trkpt lat="44.49013" lon="1.27653">
        <ele>173.9939</ele>
        <time>2019-11-21T14:37:46Z</time>
      </trkpt>
      <trkpt lat="44.4902" lon="1.27658">
        <ele>173.89368666667</ele>
        <time>2019-11-21T14:37:53Z</time>
      </trkpt>
      <trkpt lat="44.49027" lon="1.27664">
        <ele>173.89346</ele>
        <time>2019-11-21T14:38:00Z</time>
      </trkpt>
      <trkpt lat="44.49035" lon="1.27669">
        <ele>173.99323333333</ele>
        <time>2019-11-21T14:38:08Z</time>
      </trkpt>
      <trkpt lat="44.49041" lon="1.27675">
        <ele>173.99298666667</ele>
        <time>2019-11-21T14:38:14Z</time>
      </trkpt>
      <trkpt lat="44.49048" lon="1.27682">
        <ele>174.19274</ele>
        <time>2019-11-21T14:38:21Z</time>
      </trkpt>
      <trkpt lat="44.49055" lon="1.27688">
        <ele>177.79248666667</ele>
        <time>2019-11-21T14:38:30Z</time>
      </trkpt>
      <trkpt lat="44.49063" lon="1.27695">
        <ele>180.2922</ele>
        <time>2019-11-21T14:38:40Z</time>
      </trkpt>
      <trkpt lat="44.4907" lon="1.27702">
        <ele>180.09192</ele>
        <time>2019-11-21T14:38:48Z</time>
      </trkpt>
      <trkpt lat="44.49077" lon="1.27708">
        <ele>182.39166666667</ele>
        <time>2019-11-21T14:39:01Z</time>
      </trkpt>
      <trkpt lat="44.49083" lon="1.277">
        <ele>184.79199333333</ele>
        <time>2019-11-21T14:39:11Z</time>
      </trkpt>
      <trkpt lat="44.49085" lon="1.27689">
        <ele>186.29246</ele>
        <time>2019-11-21T14:39:20Z</time>
      </trkpt>
      <trkpt lat="44.49087" lon="1.27677">
        <ele>187.29290666667</ele>
        <time>2019-11-21T14:39:27Z</time>
      </trkpt>
      <trkpt lat="44.4909" lon="1.27667">
        <ele>187.49334</ele>
        <time>2019-11-21T14:39:35Z</time>
      </trkpt>
      <trkpt lat="44.49095" lon="1.27656">
        <ele>187.19374666667</ele>
        <time>2019-11-21T14:39:46Z</time>
      </trkpt>
      <trkpt lat="44.49102" lon="1.27651">
        <ele>190.99396666667</ele>
        <time>2019-11-21T14:41:39Z</time>
      </trkpt>
      <trkpt lat="44.49108" lon="1.27653">
        <ele>190.19388666667</ele>
        <time>2019-11-21T14:41:58Z</time>
      </trkpt>
      <trkpt lat="44.49115" lon="1.2766">
        <ele>189.79361333333</ele>
        <time>2019-11-21T14:42:04Z</time>
      </trkpt>
      <trkpt lat="44.49122" lon="1.27667">
        <ele>191.09334</ele>
        <time>2019-11-21T14:42:13Z</time>
      </trkpt>
      <trkpt lat="44.49129" lon="1.27672">
        <ele>191.29310666667</ele>
        <time>2019-11-21T14:43:16Z</time>
      </trkpt>
      <trkpt lat="44.49138" lon="1.27674">
        <ele>194.29302666667</ele>
        <time>2019-11-21T14:43:25Z</time>
      </trkpt>
      <trkpt lat="44.49146" lon="1.27674">
        <ele>201.49304666667</ele>
        <time>2019-11-21T14:43:37Z</time>
      </trkpt>
      <trkpt lat="44.49154" lon="1.2767">
        <ele>206.99319333333</ele>
        <time>2019-11-21T14:43:47Z</time>
      </trkpt>
      <trkpt lat="44.49163" lon="1.27669">
        <ele>209.09325333333</ele>
        <time>2019-11-21T14:43:55Z</time>
      </trkpt>
      <trkpt lat="44.49171" lon="1.27668">
        <ele>209.89326666667</ele>
        <time>2019-11-21T14:44:02Z</time>
      </trkpt>
      <trkpt lat="44.49179" lon="1.27666">
        <ele>210.89336</ele>
        <time>2019-11-21T14:44:09Z</time>
      </trkpt>
      <trkpt lat="44.49188" lon="1.27664">
        <ele>213.89345333333</ele>
        <time>2019-11-21T14:44:17Z</time>
      </trkpt>
      <trkpt lat="44.49195" lon="1.27664">
        <ele>214.89343333333</ele>
        <time>2019-11-21T14:44:24Z</time>
      </trkpt>
      <trkpt lat="44.49203" lon="1.27669">
        <ele>209.69325333333</ele>
        <time>2019-11-21T14:44:29Z</time>
      </trkpt>
      <trkpt lat="44.49211" lon="1.27671">
        <ele>207.39318</ele>
        <time>2019-11-21T14:44:36Z</time>
      </trkpt>
      <trkpt lat="44.4922" lon="1.27672">
        <ele>205.69314</ele>
        <time>2019-11-21T14:44:44Z</time>
      </trkpt>
      <trkpt lat="44.49229" lon="1.27674">
        <ele>203.99306</ele>
        <time>2019-11-21T14:44:50Z</time>
      </trkpt>
      <trkpt lat="44.49237" lon="1.27674">
        <ele>204.79306</ele>
        <time>2019-11-21T14:44:56Z</time>
      </trkpt>
      <trkpt lat="44.49245" lon="1.27674">
        <ele>205.99303333333</ele>
        <time>2019-11-21T14:45:02Z</time>
      </trkpt>
      <trkpt lat="44.49253" lon="1.27673">
        <ele>209.89309333333</ele>
        <time>2019-11-21T14:45:10Z</time>
      </trkpt>
      <trkpt lat="44.49261" lon="1.27673">
        <ele>210.49308666667</ele>
        <time>2019-11-21T14:45:17Z</time>
      </trkpt>
      <trkpt lat="44.4927" lon="1.27672">
        <ele>210.49314</ele>
        <time>2019-11-21T14:45:26Z</time>
      </trkpt>
      <trkpt lat="44.49278" lon="1.27673">
        <ele>210.19307333333</ele>
        <time>2019-11-21T14:45:34Z</time>
      </trkpt>
      <trkpt lat="44.49286" lon="1.27675">
        <ele>208.393</ele>
        <time>2019-11-21T14:45:40Z</time>
      </trkpt>
      <trkpt lat="44.49294" lon="1.27678">
        <ele>205.69289333333</ele>
        <time>2019-11-21T14:45:45Z</time>
      </trkpt>
      <trkpt lat="44.49301" lon="1.27681">
        <ele>204.29276666667</ele>
        <time>2019-11-21T14:45:50Z</time>
      </trkpt>
      <trkpt lat="44.49308" lon="1.27685">
        <ele>206.2926</ele>
        <time>2019-11-21T14:45:56Z</time>
      </trkpt>
      <trkpt lat="44.49315" lon="1.27691">
        <ele>206.19236666667</ele>
        <time>2019-11-21T14:46:03Z</time>
      </trkpt>
      <trkpt lat="44.49321" lon="1.27696">
        <ele>206.49217333333</ele>
        <time>2019-11-21T14:46:09Z</time>
      </trkpt>
      <trkpt lat="44.49328" lon="1.27703">
        <ele>204.19189333333</ele>
        <time>2019-11-21T14:46:14Z</time>
      </trkpt>
      <trkpt lat="44.49333" lon="1.27711">
        <ele>203.99154666667</ele>
        <time>2019-11-21T14:46:22Z</time>
      </trkpt>
      <trkpt lat="44.49338" lon="1.27722">
        <ele>200.99112666667</ele>
        <time>2019-11-21T14:46:28Z</time>
      </trkpt>
      <trkpt lat="44.49341" lon="1.27734">
        <ele>200.09065333333</ele>
        <time>2019-11-21T14:46:35Z</time>
      </trkpt>
      <trkpt lat="44.49345" lon="1.27744">
        <ele>198.79025333333</ele>
        <time>2019-11-21T14:46:40Z</time>
      </trkpt>
      <trkpt lat="44.4935" lon="1.27753">
        <ele>199.28988</ele>
        <time>2019-11-21T14:46:46Z</time>
      </trkpt>
      <trkpt lat="44.49357" lon="1.27761">
        <ele>198.18958</ele>
        <time>2019-11-21T14:46:52Z</time>
      </trkpt>
      <trkpt lat="44.49361" lon="1.27771">
        <ele>199.28914666667</ele>
        <time>2019-11-21T14:47:00Z</time>
      </trkpt>
      <trkpt lat="44.49365" lon="1.27781">
        <ele>199.78874666667</ele>
        <time>2019-11-21T14:47:07Z</time>
      </trkpt>
      <trkpt lat="44.49371" lon="1.27791">
        <ele>202.98836</ele>
        <time>2019-11-21T14:47:17Z</time>
      </trkpt>
      <trkpt lat="44.49378" lon="1.27797">
        <ele>204.08810666667</ele>
        <time>2019-11-21T14:47:28Z</time>
      </trkpt>
      <trkpt lat="44.49384" lon="1.27805">
        <ele>204.28779333333</ele>
        <time>2019-11-21T14:47:36Z</time>
      </trkpt>
      <trkpt lat="44.49391" lon="1.27813">
        <ele>205.28748</ele>
        <time>2019-11-21T14:47:45Z</time>
      </trkpt>
      <trkpt lat="44.49398" lon="1.27819">
        <ele>207.38723333333</ele>
        <time>2019-11-21T14:47:54Z</time>
      </trkpt>
      <trkpt lat="44.49405" lon="1.27826">
        <ele>206.78695333333</ele>
        <time>2019-11-21T14:48:01Z</time>
      </trkpt>
      <trkpt lat="44.49411" lon="1.27834">
        <ele>207.28665333333</ele>
        <time>2019-11-21T14:48:09Z</time>
      </trkpt>
      <trkpt lat="44.49419" lon="1.27841">
        <ele>210.28635333333</ele>
        <time>2019-11-21T14:48:18Z</time>
      </trkpt>
      <trkpt lat="44.49426" lon="1.27847">
        <ele>208.38613333333</ele>
        <time>2019-11-21T14:48:25Z</time>
      </trkpt>
      <trkpt lat="44.49432" lon="1.27853">
        <ele>205.28588666667</ele>
        <time>2019-11-21T14:48:29Z</time>
      </trkpt>
      <trkpt lat="44.49439" lon="1.2786">
        <ele>202.48561333333</ele>
        <time>2019-11-21T14:48:36Z</time>
      </trkpt>
      <trkpt lat="44.49446" lon="1.27866">
        <ele>204.78538</ele>
        <time>2019-11-21T14:48:45Z</time>
      </trkpt>
      <trkpt lat="44.49453" lon="1.2787">
        <ele>206.0852</ele>
        <time>2019-11-21T14:48:52Z</time>
      </trkpt>
      <trkpt lat="44.49462" lon="1.27873">
        <ele>206.18506666667</ele>
        <time>2019-11-21T14:48:59Z</time>
      </trkpt>
      <trkpt lat="44.4947" lon="1.27873">
        <ele>207.08507333333</ele>
        <time>2019-11-21T14:49:09Z</time>
      </trkpt>
      <trkpt lat="44.49478" lon="1.27874">
        <ele>210.48505333333</ele>
        <time>2019-11-21T14:49:20Z</time>
      </trkpt>
      <trkpt lat="44.49487" lon="1.27874">
        <ele>214.98502666667</ele>
        <time>2019-11-21T14:49:31Z</time>
      </trkpt>
      <trkpt lat="44.49495" lon="1.27874">
        <ele>214.18503333333</ele>
        <time>2019-11-21T14:49:37Z</time>
      </trkpt>
      <trkpt lat="44.49503" lon="1.27875">
        <ele>214.48499333333</ele>
        <time>2019-11-21T14:49:44Z</time>
      </trkpt>
      <trkpt lat="44.49512" lon="1.27876">
        <ele>218.28496</ele>
        <time>2019-11-21T14:49:53Z</time>
      </trkpt>
      <trkpt lat="44.49519" lon="1.27877">
        <ele>220.68493333333</ele>
        <time>2019-11-21T14:50:00Z</time>
      </trkpt>
      <trkpt lat="44.49528" lon="1.27877">
        <ele>224.28493333333</ele>
        <time>2019-11-21T14:50:08Z</time>
      </trkpt>
      <trkpt lat="44.49537" lon="1.27876">
        <ele>226.38498</ele>
        <time>2019-11-21T14:50:16Z</time>
      </trkpt>
      <trkpt lat="44.49545" lon="1.27878">
        <ele>224.28487333333</ele>
        <time>2019-11-21T14:50:24Z</time>
      </trkpt>
      <trkpt lat="44.49554" lon="1.27881">
        <ele>219.28474666667</ele>
        <time>2019-11-21T14:50:47Z</time>
      </trkpt>
      <trkpt lat="44.49562" lon="1.27883">
        <ele>220.78468</ele>
        <time>2019-11-21T14:50:55Z</time>
      </trkpt>
      <trkpt lat="44.4957" lon="1.27887">
        <ele>219.68452666667</ele>
        <time>2019-11-21T14:51:04Z</time>
      </trkpt>
      <trkpt lat="44.49577" lon="1.27894">
        <ele>220.18426</ele>
        <time>2019-11-21T14:51:14Z</time>
      </trkpt>
      <trkpt lat="44.49583" lon="1.27901">
        <ele>219.08395333333</ele>
        <time>2019-11-21T14:51:20Z</time>
      </trkpt>
      <trkpt lat="44.49589" lon="1.27909">
        <ele>219.28362666667</ele>
        <time>2019-11-21T14:51:28Z</time>
      </trkpt>
      <trkpt lat="44.49594" lon="1.27919">
        <ele>217.18322666667</ele>
        <time>2019-11-21T14:51:34Z</time>
      </trkpt>
      <trkpt lat="44.49598" lon="1.2793">
        <ele>212.08280666667</ele>
        <time>2019-11-21T14:51:45Z</time>
      </trkpt>
      <trkpt lat="44.49605" lon="1.27935">
        <ele>211.38258666667</ele>
        <time>2019-11-21T14:51:53Z</time>
      </trkpt>
      <trkpt lat="44.49613" lon="1.2794">
        <ele>215.48239333333</ele>
        <time>2019-11-21T14:52:04Z</time>
      </trkpt>
      <trkpt lat="44.49619" lon="1.27947">
        <ele>217.68212666667</ele>
        <time>2019-11-21T14:52:12Z</time>
      </trkpt>
      <trkpt lat="44.49624" lon="1.27956">
        <ele>217.18174666667</ele>
        <time>2019-11-21T14:52:17Z</time>
      </trkpt>
      <trkpt lat="44.4963" lon="1.27964">
        <ele>216.78144666667</ele>
        <time>2019-11-21T14:52:23Z</time>
      </trkpt>
      <trkpt lat="44.49636" lon="1.27972">
        <ele>223.58113333333</ele>
        <time>2019-11-21T14:52:35Z</time>
      </trkpt>
      <trkpt lat="44.49643" lon="1.27978">
        <ele>226.48087333333</ele>
        <time>2019-11-21T14:52:44Z</time>
      </trkpt>
      <trkpt lat="44.4965" lon="1.27983">
        <ele>229.48069333333</ele>
        <time>2019-11-21T14:52:52Z</time>
      </trkpt>
      <trkpt lat="44.49657" lon="1.27989">
        <ele>228.88045333333</ele>
        <time>2019-11-21T14:52:59Z</time>
      </trkpt>
      <trkpt lat="44.49663" lon="1.27997">
        <ele>228.08011333333</ele>
        <time>2019-11-21T14:53:07Z</time>
      </trkpt>
      <trkpt lat="44.49666" lon="1.28008">
        <ele>227.57969333333</ele>
        <time>2019-11-21T14:53:13Z</time>
      </trkpt>
      <trkpt lat="44.49668" lon="1.2802">
        <ele>221.67922</ele>
        <time>2019-11-21T14:53:20Z</time>
      </trkpt>
      <trkpt lat="44.49669" lon="1.2803">
        <ele>219.07881333333</ele>
        <time>2019-11-21T14:53:31Z</time>
      </trkpt>
      <trkpt lat="44.49667" lon="1.28042">
        <ele>216.57833333333</ele>
        <time>2019-11-21T14:53:40Z</time>
      </trkpt>
      <trkpt lat="44.49662" lon="1.28051">
        <ele>219.07796</ele>
        <time>2019-11-21T14:53:55Z</time>
      </trkpt>
      <trkpt lat="44.49657" lon="1.28061">
        <ele>215.67757333333</ele>
        <time>2019-11-21T14:54:03Z</time>
      </trkpt>
      <trkpt lat="44.4965" lon="1.28065">
        <ele>215.1774</ele>
        <time>2019-11-21T14:54:08Z</time>
      </trkpt>
      <trkpt lat="44.49642" lon="1.2807">
        <ele>221.67720666667</ele>
        <time>2019-11-21T14:54:15Z</time>
      </trkpt>
      <trkpt lat="44.49635" lon="1.28075">
        <ele>226.77698666667</ele>
        <time>2019-11-21T14:54:23Z</time>
      </trkpt>
      <trkpt lat="44.49627" lon="1.28079">
        <ele>222.67686</ele>
        <time>2019-11-21T14:54:28Z</time>
      </trkpt>
      <trkpt lat="44.49622" lon="1.28085">
        <ele>228.27661333333</ele>
        <time>2019-11-21T14:54:43Z</time>
      </trkpt>
      <trkpt lat="44.49613" lon="1.28088">
        <ele>230.97648</ele>
        <time>2019-11-21T14:54:47Z</time>
      </trkpt>
      <trkpt lat="44.49606" lon="1.28095">
        <ele>219.77620666667</ele>
        <time>2019-11-21T14:54:58Z</time>
      </trkpt>
      <trkpt lat="44.49599" lon="1.28101">
        <ele>215.67597333333</ele>
        <time>2019-11-21T14:55:14Z</time>
      </trkpt>
      <trkpt lat="44.49593" lon="1.28109">
        <ele>212.87566</ele>
        <time>2019-11-21T14:55:21Z</time>
      </trkpt>
      <trkpt lat="44.49585" lon="1.28115">
        <ele>209.47542</ele>
        <time>2019-11-21T14:55:27Z</time>
      </trkpt>
      <trkpt lat="44.49578" lon="1.2812">
        <ele>216.97520666667</ele>
        <time>2019-11-21T14:55:34Z</time>
      </trkpt>
      <trkpt lat="44.4957" lon="1.28124">
        <ele>219.07504666667</ele>
        <time>2019-11-21T14:55:41Z</time>
      </trkpt>
      <trkpt lat="44.49562" lon="1.28127">
        <ele>222.57491333333</ele>
        <time>2019-11-21T14:55:48Z</time>
      </trkpt>
      <trkpt lat="44.49555" lon="1.28135">
        <ele>227.17460666667</ele>
        <time>2019-11-21T14:55:55Z</time>
      </trkpt>
      <trkpt lat="44.49548" lon="1.28143">
        <ele>230.07429333333</ele>
        <time>2019-11-21T14:56:01Z</time>
      </trkpt>
      <trkpt lat="44.49541" lon="1.2815">
        <ele>234.07399333333</ele>
        <time>2019-11-21T14:56:08Z</time>
      </trkpt>
      <trkpt lat="44.49534" lon="1.28157">
        <ele>224.07372666667</ele>
        <time>2019-11-21T14:56:19Z</time>
      </trkpt>
      <trkpt lat="44.49528" lon="1.28164">
        <ele>221.57344</ele>
        <time>2019-11-21T14:56:26Z</time>
      </trkpt>
      <trkpt lat="44.49521" lon="1.28172">
        <ele>226.07314</ele>
        <time>2019-11-21T14:56:40Z</time>
      </trkpt>
      <trkpt lat="44.49514" lon="1.28177">
        <ele>225.47291333333</ele>
        <time>2019-11-21T14:56:44Z</time>
      </trkpt>
      <trkpt lat="44.49508" lon="1.28185">
        <ele>225.77262</ele>
        <time>2019-11-21T14:56:51Z</time>
      </trkpt>
      <trkpt lat="44.495" lon="1.28191">
        <ele>223.77235333333</ele>
        <time>2019-11-21T14:56:58Z</time>
      </trkpt>
      <trkpt lat="44.49493" lon="1.28197">
        <ele>212.37211333333</ele>
        <time>2019-11-21T14:57:09Z</time>
      </trkpt>
      <trkpt lat="44.49488" lon="1.28206">
        <ele>213.47176666667</ele>
        <time>2019-11-21T14:57:15Z</time>
      </trkpt>
      <trkpt lat="44.49482" lon="1.28214">
        <ele>214.97143333333</ele>
        <time>2019-11-21T14:57:24Z</time>
      </trkpt>
      <trkpt lat="44.49477" lon="1.28221">
        <ele>215.17118</ele>
        <time>2019-11-21T14:57:34Z</time>
      </trkpt>
      <trkpt lat="44.49468" lon="1.28226">
        <ele>214.47098</ele>
        <time>2019-11-21T14:57:43Z</time>
      </trkpt>
      <trkpt lat="44.49461" lon="1.2823">
        <ele>214.07078666667</ele>
        <time>2019-11-21T14:57:56Z</time>
      </trkpt>
      <trkpt lat="44.49452" lon="1.28234">
        <ele>212.97063333333</ele>
        <time>2019-11-21T14:58:06Z</time>
      </trkpt>
      <trkpt lat="44.49444" lon="1.28239">
        <ele>211.37046</ele>
        <time>2019-11-21T14:58:13Z</time>
      </trkpt>
      <trkpt lat="44.49436" lon="1.28243">
        <ele>209.9703</ele>
        <time>2019-11-21T14:58:21Z</time>
      </trkpt>
      <trkpt lat="44.49429" lon="1.28249">
        <ele>207.67005333333</ele>
        <time>2019-11-21T14:58:33Z</time>
      </trkpt>
      <trkpt lat="44.49423" lon="1.28257">
        <ele>211.56972666667</ele>
        <time>2019-11-21T14:58:44Z</time>
      </trkpt>
      <trkpt lat="44.49417" lon="1.28264">
        <ele>214.76942666667</ele>
        <time>2019-11-21T14:58:55Z</time>
      </trkpt>
      <trkpt lat="44.49409" lon="1.28269">
        <ele>215.56924666667</ele>
        <time>2019-11-21T14:59:03Z</time>
      </trkpt>
      <trkpt lat="44.49402" lon="1.28275">
        <ele>215.66902</ele>
        <time>2019-11-21T14:59:11Z</time>
      </trkpt>
      <trkpt lat="44.49395" lon="1.28282">
        <ele>216.96873333333</ele>
        <time>2019-11-21T14:59:18Z</time>
      </trkpt>
      <trkpt lat="44.49392" lon="1.28293">
        <ele>218.56829333333</ele>
        <time>2019-11-21T14:59:27Z</time>
      </trkpt>
      <trkpt lat="44.49391" lon="1.28304">
        <ele>217.86783333333</ele>
        <time>2019-11-21T14:59:35Z</time>
      </trkpt>
      <trkpt lat="44.49385" lon="1.28313">
        <ele>216.56746666667</ele>
        <time>2019-11-21T14:59:45Z</time>
      </trkpt>
      <trkpt lat="44.49377" lon="1.28318">
        <ele>212.96728666667</ele>
        <time>2019-11-21T14:59:51Z</time>
      </trkpt>
      <trkpt lat="44.49369" lon="1.2832">
        <ele>209.06718666667</ele>
        <time>2019-11-21T15:00:02Z</time>
      </trkpt>
      <trkpt lat="44.49366" lon="1.28322">
        <ele>208.86711333333</ele>
        <time>2019-11-21T15:02:22Z</time>
      </trkpt>
      <trkpt lat="44.49357" lon="1.28324">
        <ele>206.76703333333</ele>
        <time>2019-11-21T15:02:26Z</time>
      </trkpt>
      <trkpt lat="44.49365" lon="1.28321">
        <ele>214.46715333333</ele>
        <time>2019-11-21T15:12:59Z</time>
      </trkpt>
      <trkpt lat="44.49373" lon="1.28315">
        <ele>215.16738666667</ele>
        <time>2019-11-21T15:13:11Z</time>
      </trkpt>
      <trkpt lat="44.49376" lon="1.28304">
        <ele>213.46783333333</ele>
        <time>2019-11-21T15:13:22Z</time>
      </trkpt>
      <trkpt lat="44.49377" lon="1.28292">
        <ele>211.26833333333</ele>
        <time>2019-11-21T15:13:33Z</time>
      </trkpt>
      <trkpt lat="44.4937" lon="1.28297">
        <ele>213.46811333333</ele>
        <time>2019-11-21T15:13:45Z</time>
      </trkpt>
      <trkpt lat="44.49364" lon="1.28303">
        <ele>212.56788666667</ele>
        <time>2019-11-21T15:13:51Z</time>
      </trkpt>
      <trkpt lat="44.49356" lon="1.28309">
        <ele>210.66764</ele>
        <time>2019-11-21T15:13:59Z</time>
      </trkpt>
      <trkpt lat="44.49349" lon="1.28314">
        <ele>208.06745333333</ele>
        <time>2019-11-21T15:14:05Z</time>
      </trkpt>
      <trkpt lat="44.49342" lon="1.28319">
        <ele>206.56725333333</ele>
        <time>2019-11-21T15:14:13Z</time>
      </trkpt>
      <trkpt lat="44.49333" lon="1.28323">
        <ele>204.86708666667</ele>
        <time>2019-11-21T15:14:20Z</time>
      </trkpt>
      <trkpt lat="44.49326" lon="1.28328">
        <ele>203.36689333333</ele>
        <time>2019-11-21T15:14:27Z</time>
      </trkpt>
      <trkpt lat="44.49319" lon="1.28334">
        <ele>202.66664</ele>
        <time>2019-11-21T15:14:35Z</time>
      </trkpt>
      <trkpt lat="44.49311" lon="1.28339">
        <ele>202.96644</ele>
        <time>2019-11-21T15:14:45Z</time>
      </trkpt>
      <trkpt lat="44.49303" lon="1.28343">
        <ele>201.76626666667</ele>
        <time>2019-11-21T15:14:55Z</time>
      </trkpt>
      <trkpt lat="44.49295" lon="1.28348">
        <ele>203.86608666667</ele>
        <time>2019-11-21T15:15:06Z</time>
      </trkpt>
      <trkpt lat="44.49287" lon="1.28351">
        <ele>204.06594666667</ele>
        <time>2019-11-21T15:15:13Z</time>
      </trkpt>
      <trkpt lat="44.49279" lon="1.28354">
        <ele>204.86584</ele>
        <time>2019-11-21T15:15:19Z</time>
      </trkpt>
      <trkpt lat="44.49272" lon="1.28356">
        <ele>204.16577333333</ele>
        <time>2019-11-21T15:15:23Z</time>
      </trkpt>
      <trkpt lat="44.49264" lon="1.28357">
        <ele>205.76571333333</ele>
        <time>2019-11-21T15:15:29Z</time>
      </trkpt>
      <trkpt lat="44.49256" lon="1.28361">
        <ele>205.76554666667</ele>
        <time>2019-11-21T15:15:35Z</time>
      </trkpt>
      <trkpt lat="44.49249" lon="1.28366">
        <ele>206.76534666667</ele>
        <time>2019-11-21T15:15:41Z</time>
      </trkpt>
      <trkpt lat="44.49241" lon="1.28371">
        <ele>207.46518</ele>
        <time>2019-11-21T15:15:46Z</time>
      </trkpt>
      <trkpt lat="44.49232" lon="1.28372">
        <ele>208.56510666667</ele>
        <time>2019-11-21T15:15:51Z</time>
      </trkpt>
      <trkpt lat="44.49225" lon="1.28377">
        <ele>208.46490666667</ele>
        <time>2019-11-21T15:15:58Z</time>
      </trkpt>
      <trkpt lat="44.49217" lon="1.28381">
        <ele>211.16476</ele>
        <time>2019-11-21T15:16:08Z</time>
      </trkpt>
      <trkpt lat="44.49209" lon="1.28384">
        <ele>207.56466</ele>
        <time>2019-11-21T15:16:16Z</time>
      </trkpt>
      <trkpt lat="44.49201" lon="1.28387">
        <ele>204.16451333333</ele>
        <time>2019-11-21T15:16:26Z</time>
      </trkpt>
      <trkpt lat="44.49194" lon="1.28392">
        <ele>203.56430666667</ele>
        <time>2019-11-21T15:16:34Z</time>
      </trkpt>
      <trkpt lat="44.49188" lon="1.284">
        <ele>204.06398666667</ele>
        <time>2019-11-21T15:16:43Z</time>
      </trkpt>
      <trkpt lat="44.49181" lon="1.28408">
        <ele>202.86368666667</ele>
        <time>2019-11-21T15:16:52Z</time>
      </trkpt>
      <trkpt lat="44.49175" lon="1.28415">
        <ele>200.16341333333</ele>
        <time>2019-11-21T15:17:00Z</time>
      </trkpt>
      <trkpt lat="44.49167" lon="1.2842">
        <ele>197.96320666667</ele>
        <time>2019-11-21T15:17:07Z</time>
      </trkpt>
      <trkpt lat="44.4916" lon="1.28426">
        <ele>197.06297333333</ele>
        <time>2019-11-21T15:17:14Z</time>
      </trkpt>
      <trkpt lat="44.49153" lon="1.28433">
        <ele>198.06269333333</ele>
        <time>2019-11-21T15:17:22Z</time>
      </trkpt>
      <trkpt lat="44.49145" lon="1.28438">
        <ele>197.06248666667</ele>
        <time>2019-11-21T15:17:29Z</time>
      </trkpt>
      <trkpt lat="44.49138" lon="1.28445">
        <ele>194.26218666667</ele>
        <time>2019-11-21T15:17:37Z</time>
      </trkpt>
      <trkpt lat="44.49132" lon="1.28453">
        <ele>191.26187333333</ele>
        <time>2019-11-21T15:17:45Z</time>
      </trkpt>
      <trkpt lat="44.49124" lon="1.28459">
        <ele>188.56163333333</ele>
        <time>2019-11-21T15:17:54Z</time>
      </trkpt>
      <trkpt lat="44.49117" lon="1.28464">
        <ele>188.16143333333</ele>
        <time>2019-11-21T15:18:02Z</time>
      </trkpt>
      <trkpt lat="44.49109" lon="1.28466">
        <ele>186.26134666667</ele>
        <time>2019-11-21T15:18:08Z</time>
      </trkpt>
      <trkpt lat="44.49101" lon="1.2847">
        <ele>184.86121333333</ele>
        <time>2019-11-21T15:18:16Z</time>
      </trkpt>
      <trkpt lat="44.49092" lon="1.28473">
        <ele>184.56108666667</ele>
        <time>2019-11-21T15:18:22Z</time>
      </trkpt>
      <trkpt lat="44.49084" lon="1.28477">
        <ele>185.26092666667</ele>
        <time>2019-11-21T15:18:31Z</time>
      </trkpt>
      <trkpt lat="44.49076" lon="1.28478">
        <ele>189.86087333333</ele>
        <time>2019-11-21T15:18:40Z</time>
      </trkpt>
      <trkpt lat="44.49067" lon="1.28478">
        <ele>190.96087333333</ele>
        <time>2019-11-21T15:18:48Z</time>
      </trkpt>
      <trkpt lat="44.4906" lon="1.28473">
        <ele>192.36107333333</ele>
        <time>2019-11-21T15:18:57Z</time>
      </trkpt>
      <trkpt lat="44.49054" lon="1.28465">
        <ele>191.8614</ele>
        <time>2019-11-21T15:19:05Z</time>
      </trkpt>
      <trkpt lat="44.49049" lon="1.28456">
        <ele>191.56174666667</ele>
        <time>2019-11-21T15:19:12Z</time>
      </trkpt>
      <trkpt lat="44.49041" lon="1.28452">
        <ele>192.26192666667</ele>
        <time>2019-11-21T15:19:19Z</time>
      </trkpt>
      <trkpt lat="44.49033" lon="1.28445">
        <ele>192.16218666667</ele>
        <time>2019-11-21T15:19:27Z</time>
      </trkpt>
      <trkpt lat="44.4903" lon="1.28435">
        <ele>192.66261333333</ele>
        <time>2019-11-21T15:19:34Z</time>
      </trkpt>
      <trkpt lat="44.49023" lon="1.28428">
        <ele>190.96288666667</ele>
        <time>2019-11-21T15:19:42Z</time>
      </trkpt>
      <trkpt lat="44.49017" lon="1.2842">
        <ele>189.66322</ele>
        <time>2019-11-21T15:19:51Z</time>
      </trkpt>
      <trkpt lat="44.4901" lon="1.28412">
        <ele>190.36352666667</ele>
        <time>2019-11-21T15:19:58Z</time>
      </trkpt>
      <trkpt lat="44.49007" lon="1.28401">
        <ele>187.36395333333</ele>
        <time>2019-11-21T15:20:07Z</time>
      </trkpt>
      <trkpt lat="44.49001" lon="1.28391">
        <ele>192.26434666667</ele>
        <time>2019-11-21T15:20:17Z</time>
      </trkpt>
      <trkpt lat="44.48995" lon="1.28382">
        <ele>192.06472</ele>
        <time>2019-11-21T15:20:26Z</time>
      </trkpt>
      <trkpt lat="44.48989" lon="1.28373">
        <ele>193.06507333333</ele>
        <time>2019-11-21T15:20:33Z</time>
      </trkpt>
      <trkpt lat="44.48984" lon="1.28365">
        <ele>195.2654</ele>
        <time>2019-11-21T15:20:42Z</time>
      </trkpt>
      <trkpt lat="44.48977" lon="1.28358">
        <ele>193.56568</ele>
        <time>2019-11-21T15:20:49Z</time>
      </trkpt>
      <trkpt lat="44.48971" lon="1.28349">
        <ele>189.96606</ele>
        <time>2019-11-21T15:20:56Z</time>
      </trkpt>
      <trkpt lat="44.48966" lon="1.2834">
        <ele>187.16639333333</ele>
        <time>2019-11-21T15:21:02Z</time>
      </trkpt>
      <trkpt lat="44.4896" lon="1.28333">
        <ele>186.46668</ele>
        <time>2019-11-21T15:21:09Z</time>
      </trkpt>
      <trkpt lat="44.48953" lon="1.28326">
        <ele>186.56696</ele>
        <time>2019-11-21T15:21:16Z</time>
      </trkpt>
      <trkpt lat="44.48945" lon="1.2832">
        <ele>186.46722</ele>
        <time>2019-11-21T15:21:24Z</time>
      </trkpt>
      <trkpt lat="44.48937" lon="1.28317">
        <ele>186.66734</ele>
        <time>2019-11-21T15:21:32Z</time>
      </trkpt>
      <trkpt lat="44.48929" lon="1.28313">
        <ele>186.06748666667</ele>
        <time>2019-11-21T15:21:39Z</time>
      </trkpt>
      <trkpt lat="44.48921" lon="1.28309">
        <ele>185.16763333333</ele>
        <time>2019-11-21T15:21:47Z</time>
      </trkpt>
      <trkpt lat="44.48913" lon="1.28305">
        <ele>184.36780666667</ele>
        <time>2019-11-21T15:21:55Z</time>
      </trkpt>
      <trkpt lat="44.48906" lon="1.28301">
        <ele>182.16796</ele>
        <time>2019-11-21T15:22:03Z</time>
      </trkpt>
      <trkpt lat="44.48898" lon="1.28298">
        <ele>175.36807333333</ele>
        <time>2019-11-21T15:22:09Z</time>
      </trkpt>
      <trkpt lat="44.48889" lon="1.28297">
        <ele>171.66814</ele>
        <time>2019-11-21T15:22:21Z</time>
      </trkpt>
      <trkpt lat="44.48881" lon="1.28297">
        <ele>167.96813333333</ele>
        <time>2019-11-21T15:22:31Z</time>
      </trkpt>
      <trkpt lat="44.48872" lon="1.28297">
        <ele>168.86813333333</ele>
        <time>2019-11-21T15:22:41Z</time>
      </trkpt>
      <trkpt lat="44.48864" lon="1.28299">
        <ele>166.36804</ele>
        <time>2019-11-21T15:22:50Z</time>
      </trkpt>
      <trkpt lat="44.48856" lon="1.28303">
        <ele>167.46789333333</ele>
        <time>2019-11-21T15:22:58Z</time>
      </trkpt>
      <trkpt lat="44.48847" lon="1.28307">
        <ele>169.46773333333</ele>
        <time>2019-11-21T15:23:05Z</time>
      </trkpt>
      <trkpt lat="44.48839" lon="1.28312">
        <ele>169.96750666667</ele>
        <time>2019-11-21T15:23:12Z</time>
      </trkpt>
      <trkpt lat="44.48831" lon="1.28317">
        <ele>171.36734</ele>
        <time>2019-11-21T15:23:22Z</time>
      </trkpt>
      <trkpt lat="44.48824" lon="1.28321">
        <ele>165.66718</ele>
        <time>2019-11-21T15:23:31Z</time>
      </trkpt>
      <trkpt lat="44.48815" lon="1.28321">
        <ele>161.16718</ele>
        <time>2019-11-21T15:23:38Z</time>
      </trkpt>
      <trkpt lat="44.48807" lon="1.28318">
        <ele>161.26727333333</ele>
        <time>2019-11-21T15:23:45Z</time>
      </trkpt>
      <trkpt lat="44.488" lon="1.28317">
        <ele>161.16734</ele>
        <time>2019-11-21T15:23:50Z</time>
      </trkpt>
      <trkpt lat="44.48792" lon="1.28315">
        <ele>160.86742</ele>
        <time>2019-11-21T15:23:55Z</time>
      </trkpt>
      <trkpt lat="44.48785" lon="1.28308">
        <ele>161.56767333333</ele>
        <time>2019-11-21T15:24:04Z</time>
      </trkpt>
      <trkpt lat="44.48779" lon="1.28299">
        <ele>162.06804</ele>
        <time>2019-11-21T15:24:13Z</time>
      </trkpt>
      <trkpt lat="44.48775" lon="1.28289">
        <ele>165.26843333333</ele>
        <time>2019-11-21T15:24:21Z</time>
      </trkpt>
      <trkpt lat="44.4877" lon="1.2828">
        <ele>166.76880666667</ele>
        <time>2019-11-21T15:24:29Z</time>
      </trkpt>
      <trkpt lat="44.48764" lon="1.28272">
        <ele>168.06913333333</ele>
        <time>2019-11-21T15:24:37Z</time>
      </trkpt>
      <trkpt lat="44.4876" lon="1.28261">
        <ele>167.76954666667</ele>
        <time>2019-11-21T15:24:45Z</time>
      </trkpt>
      <trkpt lat="44.48757" lon="1.2825">
        <ele>172.06998666667</ele>
        <time>2019-11-21T15:24:54Z</time>
      </trkpt>
      <trkpt lat="44.48752" lon="1.28242">
        <ele>171.87032666667</ele>
        <time>2019-11-21T15:25:02Z</time>
      </trkpt>
      <trkpt lat="44.48748" lon="1.28232">
        <ele>166.97070666667</ele>
        <time>2019-11-21T15:25:09Z</time>
      </trkpt>
      <trkpt lat="44.48741" lon="1.28226">
        <ele>163.57098</ele>
        <time>2019-11-21T15:25:17Z</time>
      </trkpt>
      <trkpt lat="44.48734" lon="1.28222">
        <ele>161.17114</ele>
        <time>2019-11-21T15:25:23Z</time>
      </trkpt>
      <trkpt lat="44.48725" lon="1.28219">
        <ele>159.27122666667</ele>
        <time>2019-11-21T15:25:31Z</time>
      </trkpt>
      <trkpt lat="44.48717" lon="1.28217">
        <ele>158.27134</ele>
        <time>2019-11-21T15:25:39Z</time>
      </trkpt>
      <trkpt lat="44.48709" lon="1.28214">
        <ele>158.07143333333</ele>
        <time>2019-11-21T15:25:47Z</time>
      </trkpt>
      <trkpt lat="44.48701" lon="1.28212">
        <ele>158.57152666667</ele>
        <time>2019-11-21T15:25:54Z</time>
      </trkpt>
      <trkpt lat="44.48693" lon="1.2821">
        <ele>159.17158666667</ele>
        <time>2019-11-21T15:26:02Z</time>
      </trkpt>
      <trkpt lat="44.48684" lon="1.28208">
        <ele>159.17167333333</ele>
        <time>2019-11-21T15:26:09Z</time>
      </trkpt>
      <trkpt lat="44.48678" lon="1.28201">
        <ele>156.17197333333</ele>
        <time>2019-11-21T15:26:15Z</time>
      </trkpt>
      <trkpt lat="44.48671" lon="1.28192">
        <ele>155.47232</ele>
        <time>2019-11-21T15:26:28Z</time>
      </trkpt>
      <trkpt lat="44.4867" lon="1.28181">
        <ele>159.77278</ele>
        <time>2019-11-21T15:26:40Z</time>
      </trkpt>
      <trkpt lat="44.4867" lon="1.2817">
        <ele>163.17319333333</ele>
        <time>2019-11-21T15:26:45Z</time>
      </trkpt>
      <trkpt lat="44.4867" lon="1.28159">
        <ele>163.77365333333</ele>
        <time>2019-11-21T15:26:51Z</time>
      </trkpt>
      <trkpt lat="44.48672" lon="1.28148">
        <ele>158.27408666667</ele>
        <time>2019-11-21T15:26:56Z</time>
      </trkpt>
      <trkpt lat="44.48674" lon="1.28136">
        <ele>155.27456666667</ele>
        <time>2019-11-21T15:27:02Z</time>
      </trkpt>
      <trkpt lat="44.48676" lon="1.28124">
        <ele>154.37503333333</ele>
        <time>2019-11-21T15:27:09Z</time>
      </trkpt>
      <trkpt lat="44.48679" lon="1.28114">
        <ele>151.57544</ele>
        <time>2019-11-21T15:27:18Z</time>
      </trkpt>
      <trkpt lat="44.48681" lon="1.28103">
        <ele>149.07589333333</ele>
        <time>2019-11-21T15:27:24Z</time>
      </trkpt>
      <trkpt lat="44.48685" lon="1.28093">
        <ele>147.5763</ele>
        <time>2019-11-21T15:27:31Z</time>
      </trkpt>
      <trkpt lat="44.48685" lon="1.28082">
        <ele>147.17673333333</ele>
        <time>2019-11-21T15:27:38Z</time>
      </trkpt>
      <trkpt lat="44.48684" lon="1.2807">
        <ele>145.67722</ele>
        <time>2019-11-21T15:27:45Z</time>
      </trkpt>
      <trkpt lat="44.48681" lon="1.28059">
        <ele>139.87764666667</ele>
        <time>2019-11-21T15:27:50Z</time>
      </trkpt>
      <trkpt lat="44.48681" lon="1.28046">
        <ele>137.07814666667</ele>
        <time>2019-11-21T15:28:03Z</time>
      </trkpt>
      <trkpt lat="44.48674" lon="1.28038">
        <ele>130.67849333333</ele>
        <time>2019-11-21T15:28:54Z</time>
      </trkpt>
      <trkpt lat="44.48666" lon="1.28035">
        <ele>132.07860666667</ele>
        <time>2019-11-21T15:29:12Z</time>
      </trkpt>
      <trkpt lat="44.48657" lon="1.28034">
        <ele>131.57866</ele>
        <time>2019-11-21T15:29:31Z</time>
      </trkpt>
      <trkpt lat="44.48649" lon="1.2803">
        <ele>131.07881333333</ele>
        <time>2019-11-21T15:29:46Z</time>
      </trkpt>
      <trkpt lat="44.48641" lon="1.2803">
        <ele>130.87882</ele>
        <time>2019-11-21T15:29:55Z</time>
      </trkpt>
      <trkpt lat="44.48634" lon="1.28028">
        <ele>132.17888666667</ele>
        <time>2019-11-21T15:30:03Z</time>
      </trkpt>
      <trkpt lat="44.48625" lon="1.28027">
        <ele>132.67893333333</ele>
        <time>2019-11-21T15:30:11Z</time>
      </trkpt>
      <trkpt lat="44.48617" lon="1.28028">
        <ele>133.27888</ele>
        <time>2019-11-21T15:30:21Z</time>
      </trkpt>
      <trkpt lat="44.48608" lon="1.28027">
        <ele>130.27892666667</ele>
        <time>2019-11-21T15:30:34Z</time>
      </trkpt>
      <trkpt lat="44.486" lon="1.28024">
        <ele>127.27904</ele>
        <time>2019-11-21T15:30:41Z</time>
      </trkpt>
      <trkpt lat="44.48592" lon="1.28025">
        <ele>126.07902</ele>
        <time>2019-11-21T15:30:49Z</time>
      </trkpt>
      <trkpt lat="44.48583" lon="1.28025">
        <ele>125.57899333333</ele>
        <time>2019-11-21T15:30:59Z</time>
      </trkpt>
      <trkpt lat="44.48574" lon="1.28025">
        <ele>123.77898666667</ele>
        <time>2019-11-21T15:31:10Z</time>
      </trkpt>
      <trkpt lat="44.48567" lon="1.28029">
        <ele>124.67884666667</ele>
        <time>2019-11-21T15:31:19Z</time>
      </trkpt>
      <trkpt lat="44.48559" lon="1.28033">
        <ele>123.07866666667</ele>
        <time>2019-11-21T15:31:25Z</time>
      </trkpt>
      <trkpt lat="44.48551" lon="1.28036">
        <ele>122.77854666667</ele>
        <time>2019-11-21T15:31:39Z</time>
      </trkpt>
      <trkpt lat="44.48542" lon="1.2804">
        <ele>124.2784</ele>
        <time>2019-11-21T15:31:51Z</time>
      </trkpt>
      <trkpt lat="44.48534" lon="1.28043">
        <ele>121.47826666667</ele>
        <time>2019-11-21T15:32:05Z</time>
      </trkpt>
      <trkpt lat="44.48527" lon="1.28044">
        <ele>117.87824</ele>
        <time>2019-11-21T15:32:25Z</time>
      </trkpt>
      <trkpt lat="44.48522" lon="1.28041">
        <ele>118.07836666667</ele>
        <time>2019-11-21T15:32:40Z</time>
      </trkpt>
      <trkpt lat="44.48516" lon="1.28038">
        <ele>114.27848</ele>
        <time>2019-11-21T15:33:00Z</time>
      </trkpt>
      <trkpt lat="44.48511" lon="1.28028">
        <ele>111.87889333333</ele>
        <time>2019-11-21T15:34:07Z</time>
      </trkpt>
      <trkpt lat="44.48502" lon="1.2803">
        <ele>101.77880666667</ele>
        <time>2019-11-21T15:35:32Z</time>
      </trkpt>
      <trkpt lat="44.48494" lon="1.28034">
        <ele>100.37864666667</ele>
        <time>2019-11-21T15:35:41Z</time>
      </trkpt>
      <trkpt lat="44.48487" lon="1.28041">
        <ele>103.87836</ele>
        <time>2019-11-21T15:35:51Z</time>
      </trkpt>
      <trkpt lat="44.48479" lon="1.28046">
        <ele>105.27815333333</ele>
        <time>2019-11-21T15:36:15Z</time>
      </trkpt>
      <trkpt lat="44.48474" lon="1.28057">
        <ele>110.07774</ele>
        <time>2019-11-21T15:36:22Z</time>
      </trkpt>
      <trkpt lat="44.48469" lon="1.28065">
        <ele>109.0774</ele>
        <time>2019-11-21T15:36:29Z</time>
      </trkpt>
      <trkpt lat="44.48463" lon="1.28073">
        <ele>107.27709333333</ele>
        <time>2019-11-21T15:36:36Z</time>
      </trkpt>
      <trkpt lat="44.48455" lon="1.28078">
        <ele>108.67689333333</ele>
        <time>2019-11-21T15:36:41Z</time>
      </trkpt>
      <trkpt lat="44.48448" lon="1.28085">
        <ele>109.57660666667</ele>
        <time>2019-11-21T15:36:56Z</time>
      </trkpt>
      <trkpt lat="44.48442" lon="1.28091">
        <ele>101.57636666667</ele>
        <time>2019-11-21T15:37:03Z</time>
      </trkpt>
      <trkpt lat="44.48437" lon="1.28101">
        <ele>100.97595333333</ele>
        <time>2019-11-21T15:37:11Z</time>
      </trkpt>
      <trkpt lat="44.48436" lon="1.28112">
        <ele>101.07550666667</ele>
        <time>2019-11-21T15:37:18Z</time>
      </trkpt>
      <trkpt lat="44.48435" lon="1.28124">
        <ele>101.77502666667</ele>
        <time>2019-11-21T15:37:26Z</time>
      </trkpt>
      <trkpt lat="44.4843" lon="1.28134">
        <ele>93.17464</ele>
        <time>2019-11-21T15:37:34Z</time>
      </trkpt>
      <trkpt lat="44.48426" lon="1.28145">
        <ele>80.374206666667</ele>
        <time>2019-11-21T15:37:41Z</time>
      </trkpt>
      <trkpt lat="44.48419" lon="1.28152">
        <ele>70.773933333333</ele>
        <time>2019-11-21T15:37:51Z</time>
      </trkpt>
      <trkpt lat="44.48413" lon="1.28159">
        <ele>60.773653333333</ele>
        <time>2019-11-21T15:37:58Z</time>
      </trkpt>
      <trkpt lat="44.48408" lon="1.28167">
        <ele>51.273326666667</ele>
        <time>2019-11-21T15:38:03Z</time>
      </trkpt>
      <trkpt lat="44.48401" lon="1.28174">
        <ele>43.673026666667</ele>
        <time>2019-11-21T15:38:09Z</time>
      </trkpt>
      <trkpt lat="44.48394" lon="1.28183">
        <ele>35.07268</ele>
        <time>2019-11-21T15:38:16Z</time>
      </trkpt>
      <trkpt lat="44.48394" lon="1.28195">
        <ele>28.3722</ele>
        <time>2019-11-21T15:38:24Z</time>
      </trkpt>
      <trkpt lat="44.48389" lon="1.28204">
        <ele>19.471833333333</ele>
        <time>2019-11-21T15:38:33Z</time>
      </trkpt>
      <trkpt lat="44.4838" lon="1.28206">
        <ele>14.87176</ele>
        <time>2019-11-21T15:38:38Z</time>
      </trkpt>
      <trkpt lat="44.48372" lon="1.28208">
        <ele>8.4716733333333</ele>
        <time>2019-11-21T15:38:44Z</time>
      </trkpt>
      <trkpt lat="44.48364" lon="1.28212">
        <ele>5.07154</ele>
        <time>2019-11-21T15:38:51Z</time>
      </trkpt>
      <trkpt lat="44.48358" lon="1.2822">
        <ele>17.871206666667</ele>
        <time>2019-11-21T15:38:58Z</time>
      </trkpt>
      <trkpt lat="44.48351" lon="1.28227">
        <ele>33.470933333333</ele>
        <time>2019-11-21T15:39:04Z</time>
      </trkpt>
      <trkpt lat="44.48344" lon="1.28234">
        <ele>48.970626666667</ele>
        <time>2019-11-21T15:39:12Z</time>
      </trkpt>
      <trkpt lat="44.48337" lon="1.28242">
        <ele>64.67032</ele>
        <time>2019-11-21T15:39:20Z</time>
      </trkpt>
      <trkpt lat="44.48331" lon="1.2825">
        <ele>72.469993333333</ele>
        <time>2019-11-21T15:39:28Z</time>
      </trkpt>
      <trkpt lat="44.48327" lon="1.28259">
        <ele>76.56964</ele>
        <time>2019-11-21T15:39:36Z</time>
      </trkpt>
      <trkpt lat="44.48321" lon="1.28267">
        <ele>77.469306666667</ele>
        <time>2019-11-21T15:39:43Z</time>
      </trkpt>
      <trkpt lat="44.48316" lon="1.28276">
        <ele>77.16896</ele>
        <time>2019-11-21T15:39:50Z</time>
      </trkpt>
      <trkpt lat="44.48309" lon="1.28284">
        <ele>78.96866</ele>
        <time>2019-11-21T15:39:58Z</time>
      </trkpt>
      <trkpt lat="44.48303" lon="1.28293">
        <ele>80.6683</ele>
        <time>2019-11-21T15:40:06Z</time>
      </trkpt>
      <trkpt lat="44.48297" lon="1.28301">
        <ele>74.367946666667</ele>
        <time>2019-11-21T15:40:13Z</time>
      </trkpt>
      <trkpt lat="44.48291" lon="1.28309">
        <ele>73.067626666667</ele>
        <time>2019-11-21T15:40:21Z</time>
      </trkpt>
      <trkpt lat="44.48284" lon="1.28316">
        <ele>71.067346666667</ele>
        <time>2019-11-21T15:40:30Z</time>
      </trkpt>
      <trkpt lat="44.48275" lon="1.28318">
        <ele>69.367273333333</ele>
        <time>2019-11-21T15:40:38Z</time>
      </trkpt>
      <trkpt lat="44.48267" lon="1.28321">
        <ele>69.56718</ele>
        <time>2019-11-21T15:40:45Z</time>
      </trkpt>
      <trkpt lat="44.48258" lon="1.28322">
        <ele>69.467113333333</ele>
        <time>2019-11-21T15:40:52Z</time>
      </trkpt>
      <trkpt lat="44.4825" lon="1.28328">
        <ele>69.466893333333</ele>
        <time>2019-11-21T15:41:01Z</time>
      </trkpt>
      <trkpt lat="44.48242" lon="1.28332">
        <ele>67.766713333333</ele>
        <time>2019-11-21T15:41:10Z</time>
      </trkpt>
      <trkpt lat="44.48234" lon="1.28337">
        <ele>68.866533333333</ele>
        <time>2019-11-21T15:41:17Z</time>
      </trkpt>
      <trkpt lat="44.48227" lon="1.28342">
        <ele>68.266306666667</ele>
        <time>2019-11-21T15:41:24Z</time>
      </trkpt>
      <trkpt lat="44.4822" lon="1.2835">
        <ele>66.865993333333</ele>
        <time>2019-11-21T15:41:32Z</time>
      </trkpt>
      <trkpt lat="44.48213" lon="1.28358">
        <ele>65.665693333333</ele>
        <time>2019-11-21T15:41:40Z</time>
      </trkpt>
      <trkpt lat="44.48207" lon="1.28366">
        <ele>65.265373333333</ele>
        <time>2019-11-21T15:41:48Z</time>
      </trkpt>
      <trkpt lat="44.48204" lon="1.28374">
        <ele>64.665033333333</ele>
        <time>2019-11-21T15:41:56Z</time>
      </trkpt>
      <trkpt lat="44.48199" lon="1.28385">
        <ele>61.26462</ele>
        <time>2019-11-21T15:42:06Z</time>
      </trkpt>
      <trkpt lat="44.48194" lon="1.28395">
        <ele>60.164206666667</ele>
        <time>2019-11-21T15:42:16Z</time>
      </trkpt>
      <trkpt lat="44.48186" lon="1.28401">
        <ele>58.36398</ele>
        <time>2019-11-21T15:42:23Z</time>
      </trkpt>
      <trkpt lat="44.48179" lon="1.28407">
        <ele>59.36374</ele>
        <time>2019-11-21T15:42:30Z</time>
      </trkpt>
      <trkpt lat="44.48172" lon="1.28414">
        <ele>59.463453333333</ele>
        <time>2019-11-21T15:42:37Z</time>
      </trkpt>
      <trkpt lat="44.48167" lon="1.28423">
        <ele>59.363073333333</ele>
        <time>2019-11-21T15:42:45Z</time>
      </trkpt>
      <trkpt lat="44.48165" lon="1.28433">
        <ele>60.162666666667</ele>
        <time>2019-11-21T15:42:51Z</time>
      </trkpt>
      <trkpt lat="44.48167" lon="1.28445">
        <ele>61.4622</ele>
        <time>2019-11-21T15:42:56Z</time>
      </trkpt>
      <trkpt lat="44.48164" lon="1.28457">
        <ele>61.761726666667</ele>
        <time>2019-11-21T15:43:03Z</time>
      </trkpt>
      <trkpt lat="44.48157" lon="1.28464">
        <ele>59.961446666667</ele>
        <time>2019-11-21T15:43:12Z</time>
      </trkpt>
      <trkpt lat="44.48149" lon="1.28468">
        <ele>56.1613</ele>
        <time>2019-11-21T15:43:25Z</time>
      </trkpt>
      <trkpt lat="44.48142" lon="1.28474">
        <ele>57.761033333333</ele>
        <time>2019-11-21T15:43:32Z</time>
      </trkpt>
      <trkpt lat="44.48137" lon="1.28483">
        <ele>58.160686666667</ele>
        <time>2019-11-21T15:43:38Z</time>
      </trkpt>
      <trkpt lat="44.48132" lon="1.28492">
        <ele>58.960326666667</ele>
        <time>2019-11-21T15:43:56Z</time>
      </trkpt>
      <trkpt lat="44.48127" lon="1.28502">
        <ele>57.45994</ele>
        <time>2019-11-21T15:44:04Z</time>
      </trkpt>
      <trkpt lat="44.48121" lon="1.28509">
        <ele>59.55964</ele>
        <time>2019-11-21T15:44:09Z</time>
      </trkpt>
      <trkpt lat="44.48114" lon="1.28515">
        <ele>60.859386666667</ele>
        <time>2019-11-21T15:44:14Z</time>
      </trkpt>
      <trkpt lat="44.48106" lon="1.28519">
        <ele>58.059246666667</ele>
        <time>2019-11-21T15:44:19Z</time>
      </trkpt>
      <trkpt lat="44.481" lon="1.28525">
        <ele>56.459</ele>
        <time>2019-11-21T15:44:24Z</time>
      </trkpt>
      <trkpt lat="44.48092" lon="1.28522">
        <ele>60.459133333333</ele>
        <time>2019-11-21T15:44:29Z</time>
      </trkpt>
      <trkpt lat="44.48085" lon="1.28525">
        <ele>59.258993333333</ele>
        <time>2019-11-21T15:44:34Z</time>
      </trkpt>
      <trkpt lat="44.48079" lon="1.28533">
        <ele>56.55868</ele>
        <time>2019-11-21T15:44:39Z</time>
      </trkpt>
      <trkpt lat="44.48071" lon="1.28534">
        <ele>55.758653333333</ele>
        <time>2019-11-21T15:44:43Z</time>
      </trkpt>
      <trkpt lat="44.48065" lon="1.2854">
        <ele>52.1584</ele>
        <time>2019-11-21T15:45:03Z</time>
      </trkpt>
      <trkpt lat="44.48061" lon="1.28548">
        <ele>51.058073333333</ele>
        <time>2019-11-21T15:45:08Z</time>
      </trkpt>
      <trkpt lat="44.48058" lon="1.28559">
        <ele>49.35764</ele>
        <time>2019-11-21T15:45:14Z</time>
      </trkpt>
      <trkpt lat="44.48051" lon="1.28565">
        <ele>48.357386666667</ele>
        <time>2019-11-21T15:45:21Z</time>
      </trkpt>
      <trkpt lat="44.48045" lon="1.28572">
        <ele>48.057113333333</ele>
        <time>2019-11-21T15:45:28Z</time>
      </trkpt>
      <trkpt lat="44.48037" lon="1.28577">
        <ele>48.556926666667</ele>
        <time>2019-11-21T15:45:35Z</time>
      </trkpt>
      <trkpt lat="44.4803" lon="1.28583">
        <ele>47.7567</ele>
        <time>2019-11-21T15:45:42Z</time>
      </trkpt>
      <trkpt lat="44.48023" lon="1.28584">
        <ele>48.056626666667</ele>
        <time>2019-11-21T15:45:48Z</time>
      </trkpt>
      <trkpt lat="44.48014" lon="1.28586">
        <ele>49.556573333333</ele>
        <time>2019-11-21T15:45:54Z</time>
      </trkpt>
      <trkpt lat="44.48008" lon="1.28591">
        <ele>50.156346666667</ele>
        <time>2019-11-21T15:46:04Z</time>
      </trkpt>
      <trkpt lat="44.48001" lon="1.28599">
        <ele>54.256033333333</ele>
        <time>2019-11-21T15:46:14Z</time>
      </trkpt>
      <trkpt lat="44.47994" lon="1.28599">
        <ele>55.556046666667</ele>
        <time>2019-11-21T15:46:18Z</time>
      </trkpt>
      <trkpt lat="44.47986" lon="1.28604">
        <ele>56.655846666667</ele>
        <time>2019-11-21T15:46:24Z</time>
      </trkpt>
      <trkpt lat="44.47978" lon="1.28609">
        <ele>50.455646666667</ele>
        <time>2019-11-21T15:46:29Z</time>
      </trkpt>
      <trkpt lat="44.4797" lon="1.28612">
        <ele>50.95552</ele>
        <time>2019-11-21T15:46:35Z</time>
      </trkpt>
      <trkpt lat="44.47963" lon="1.28611">
        <ele>52.455546666667</ele>
        <time>2019-11-21T15:46:40Z</time>
      </trkpt>
      <trkpt lat="44.47955" lon="1.28612">
        <ele>56.155506666667</ele>
        <time>2019-11-21T15:46:47Z</time>
      </trkpt>
      <trkpt lat="44.47946" lon="1.28616">
        <ele>55.755353333333</ele>
        <time>2019-11-21T15:46:52Z</time>
      </trkpt>
      <trkpt lat="44.47939" lon="1.2862">
        <ele>56.15522</ele>
        <time>2019-11-21T15:46:57Z</time>
      </trkpt>
      <trkpt lat="44.47931" lon="1.28623">
        <ele>57.655093333333</ele>
        <time>2019-11-21T15:47:02Z</time>
      </trkpt>
      <trkpt lat="44.47922" lon="1.28624">
        <ele>48.85506</ele>
        <time>2019-11-21T15:47:12Z</time>
      </trkpt>
      <trkpt lat="44.47915" lon="1.2863">
        <ele>45.054786666667</ele>
        <time>2019-11-21T15:47:19Z</time>
      </trkpt>
      <trkpt lat="44.47906" lon="1.2863">
        <ele>45.154806666667</ele>
        <time>2019-11-21T15:47:24Z</time>
      </trkpt>
      <trkpt lat="44.47898" lon="1.28632">
        <ele>50.354713333333</ele>
        <time>2019-11-21T15:47:32Z</time>
      </trkpt>
      <trkpt lat="44.47892" lon="1.28638">
        <ele>61.054493333333</ele>
        <time>2019-11-21T15:47:48Z</time>
      </trkpt>
      <trkpt lat="44.47883" lon="1.28639">
        <ele>64.95446</ele>
        <time>2019-11-21T15:48:13Z</time>
      </trkpt>
      <trkpt lat="44.47875" lon="1.28633">
        <ele>72.754673333333</ele>
        <time>2019-11-21T15:48:18Z</time>
      </trkpt>
      <trkpt lat="44.47874" lon="1.28624">
        <ele>73.65506</ele>
        <time>2019-11-21T15:48:25Z</time>
      </trkpt>
      <trkpt lat="44.4787" lon="1.28613">
        <ele>74.45548</ele>
        <time>2019-11-21T15:48:30Z</time>
      </trkpt>
      <trkpt lat="44.47865" lon="1.28603">
        <ele>62.255873333333</ele>
        <time>2019-11-21T15:48:53Z</time>
      </trkpt>
      <trkpt lat="44.47863" lon="1.28594">
        <ele>65.156226666667</ele>
        <time>2019-11-21T15:49:02Z</time>
      </trkpt>
      <trkpt lat="44.47859" lon="1.28583">
        <ele>55.056666666667</ele>
        <time>2019-11-21T15:49:13Z</time>
      </trkpt>
      <trkpt lat="44.47851" lon="1.28582">
        <ele>52.95672</ele>
        <time>2019-11-21T15:49:19Z</time>
      </trkpt>
      <trkpt lat="44.47842" lon="1.28582">
        <ele>54.65672</ele>
        <time>2019-11-21T15:49:28Z</time>
      </trkpt>
      <trkpt lat="44.47834" lon="1.2858">
        <ele>55.056793333333</ele>
        <time>2019-11-21T15:49:36Z</time>
      </trkpt>
      <trkpt lat="44.47825" lon="1.28579">
        <ele>53.45684</ele>
        <time>2019-11-21T15:49:44Z</time>
      </trkpt>
      <trkpt lat="44.47819" lon="1.28587">
        <ele>53.256533333333</ele>
        <time>2019-11-21T15:49:51Z</time>
      </trkpt>
      <trkpt lat="44.47812" lon="1.28588">
        <ele>53.656473333333</ele>
        <time>2019-11-21T15:49:57Z</time>
      </trkpt>
      <trkpt lat="44.47804" lon="1.28592">
        <ele>52.45634</ele>
        <time>2019-11-21T15:50:03Z</time>
      </trkpt>
      <trkpt lat="44.47796" lon="1.2859">
        <ele>50.8564</ele>
        <time>2019-11-21T15:50:10Z</time>
      </trkpt>
      <trkpt lat="44.47787" lon="1.28587">
        <ele>55.25652</ele>
        <time>2019-11-21T15:50:22Z</time>
      </trkpt>
      <trkpt lat="44.4778" lon="1.28584">
        <ele>54.75666</ele>
        <time>2019-11-21T15:50:45Z</time>
      </trkpt>
      <trkpt lat="44.47772" lon="1.2858">
        <ele>53.556786666667</ele>
        <time>2019-11-21T15:50:58Z</time>
      </trkpt>
      <trkpt lat="44.47763" lon="1.28582">
        <ele>53.55674</ele>
        <time>2019-11-21T15:51:07Z</time>
      </trkpt>
      <trkpt lat="44.47755" lon="1.28579">
        <ele>54.256853333333</ele>
        <time>2019-11-21T15:51:14Z</time>
      </trkpt>
      <trkpt lat="44.47746" lon="1.28579">
        <ele>57.256826666667</ele>
        <time>2019-11-21T15:51:21Z</time>
      </trkpt>
      <trkpt lat="44.47739" lon="1.28586">
        <ele>50.156553333333</ele>
        <time>2019-11-21T15:51:43Z</time>
      </trkpt>
      <trkpt lat="44.4773" lon="1.28584">
        <ele>48.756646666667</ele>
        <time>2019-11-21T15:51:57Z</time>
      </trkpt>
      <trkpt lat="44.47722" lon="1.28584">
        <ele>50.956633333333</ele>
        <time>2019-11-21T15:52:06Z</time>
      </trkpt>
      <trkpt lat="44.47714" lon="1.28583">
        <ele>50.456693333333</ele>
        <time>2019-11-21T15:52:17Z</time>
      </trkpt>
      <trkpt lat="44.47706" lon="1.28579">
        <ele>47.65684</ele>
        <time>2019-11-21T15:52:22Z</time>
      </trkpt>
      <trkpt lat="44.47698" lon="1.28581">
        <ele>46.45676</ele>
        <time>2019-11-21T15:52:30Z</time>
      </trkpt>
      <trkpt lat="44.47691" lon="1.28575">
        <ele>47.857013333333</ele>
        <time>2019-11-21T15:52:38Z</time>
      </trkpt>
      <trkpt lat="44.47684" lon="1.2857">
        <ele>48.457206666667</ele>
        <time>2019-11-21T15:52:43Z</time>
      </trkpt>
      <trkpt lat="44.47677" lon="1.28562">
        <ele>52.757513333333</ele>
        <time>2019-11-21T15:52:48Z</time>
      </trkpt>
      <trkpt lat="44.47668" lon="1.28562">
        <ele>54.157526666667</ele>
        <time>2019-11-21T15:52:57Z</time>
      </trkpt>
      <trkpt lat="44.4766" lon="1.2856">
        <ele>56.75762</ele>
        <time>2019-11-21T15:53:05Z</time>
      </trkpt>
      <trkpt lat="44.47652" lon="1.28556">
        <ele>58.157766666667</ele>
        <time>2019-11-21T15:53:12Z</time>
      </trkpt>
      <trkpt lat="44.47643" lon="1.28551">
        <ele>56.157953333333</ele>
        <time>2019-11-21T15:53:19Z</time>
      </trkpt>
      <trkpt lat="44.47636" lon="1.28548">
        <ele>52.7581</ele>
        <time>2019-11-21T15:53:26Z</time>
      </trkpt>
      <trkpt lat="44.47628" lon="1.28543">
        <ele>52.05828</ele>
        <time>2019-11-21T15:53:32Z</time>
      </trkpt>
      <trkpt lat="44.4762" lon="1.28537">
        <ele>54.358513333333</ele>
        <time>2019-11-21T15:53:40Z</time>
      </trkpt>
      <trkpt lat="44.47612" lon="1.28534">
        <ele>55.358633333333</ele>
        <time>2019-11-21T15:53:47Z</time>
      </trkpt>
      <trkpt lat="44.47604" lon="1.28532">
        <ele>52.45872</ele>
        <time>2019-11-21T15:53:55Z</time>
      </trkpt>
      <trkpt lat="44.47595" lon="1.2853">
        <ele>53.358786666667</ele>
        <time>2019-11-21T15:54:12Z</time>
      </trkpt>
      <trkpt lat="44.47594" lon="1.28531">
        <ele>53.25878</ele>
        <time>2019-11-21T15:56:19Z</time>
      </trkpt>
      <trkpt lat="44.4759" lon="1.28518">
        <ele>42.359273333333</ele>
        <time>2019-11-21T15:56:23Z</time>
      </trkpt>
      <trkpt lat="44.47588" lon="1.28521">
        <ele>50.959146666667</ele>
        <time>2019-11-21T15:57:52Z</time>
      </trkpt>
      <trkpt lat="44.47588" lon="1.28521">
        <ele>50.959146666667</ele>
        <time>2019-11-21T15:57:53Z</time>
      </trkpt>
    </trkseg>
  </trk>
</gpx>